<?xml version="1.0" encoding="UTF-8" standalone="no" ?>
<gpx xmlns="http://www.topografix.com/GPX/1/1" xmlns:xsi="http://www.w3.org/2001/XMLSchema-instance" xsi:schemaLocation="http://www.topografix.com/GPX/1/1 http://www.topografix.com/GPX/1/1/gpx.xsd" version="1.1" creator="VisuGPX - https://www.visugpx.com">
  <metadata>
    <name>Randonnée Les Crêtes de Puy st Martin - 26</name>
    <desc><![CDATA[Randonnée à Puy St Martin - Roynac -  Drome
16kms dénivelé 639m]]></desc>
  </metadata>
  <trk>
    <name><![CDATA[Les Crêtes de Puy St Martin le 03-03-20192019-03-03 14:30:38]]></name>
    <trkseg>
      <trkpt lat="44.62738" lon="4.97328">
        <ele>195.65</ele>
        <time>2019-03-03T08:15:10Z</time>
      </trkpt>
      <trkpt lat="44.62738" lon="4.97328">
        <ele>195.65</ele>
        <time>2019-03-03T08:15:11Z</time>
      </trkpt>
      <trkpt lat="44.62712" lon="4.9733">
        <ele>195.71</ele>
        <time>2019-03-03T08:16:36Z</time>
      </trkpt>
      <trkpt lat="44.62711" lon="4.9733">
        <ele>195.08</ele>
        <time>2019-03-03T08:16:41Z</time>
      </trkpt>
      <trkpt lat="44.62709" lon="4.97328">
        <ele>196.49</ele>
        <time>2019-03-03T08:17:08Z</time>
      </trkpt>
      <trkpt lat="44.62716" lon="4.97327">
        <ele>196.18</ele>
        <time>2019-03-03T08:17:36Z</time>
      </trkpt>
      <trkpt lat="44.62717" lon="4.97324">
        <ele>196.2</ele>
        <time>2019-03-03T08:18:04Z</time>
      </trkpt>
      <trkpt lat="44.62715" lon="4.97326">
        <ele>196.64</ele>
        <time>2019-03-03T08:18:26Z</time>
      </trkpt>
      <trkpt lat="44.62715" lon="4.97326">
        <ele>196.59</ele>
        <time>2019-03-03T08:18:38Z</time>
      </trkpt>
      <trkpt lat="44.62715" lon="4.97329">
        <ele>195.64</ele>
        <time>2019-03-03T08:19:06Z</time>
      </trkpt>
      <trkpt lat="44.62715" lon="4.97331">
        <ele>196.1</ele>
        <time>2019-03-03T08:19:27Z</time>
      </trkpt>
      <trkpt lat="44.62714" lon="4.97333">
        <ele>197.18</ele>
        <time>2019-03-03T08:19:52Z</time>
      </trkpt>
      <trkpt lat="44.62714" lon="4.97337">
        <ele>196.83</ele>
        <time>2019-03-03T08:20:23Z</time>
      </trkpt>
      <trkpt lat="44.62713" lon="4.97336">
        <ele>196.47</ele>
        <time>2019-03-03T08:20:44Z</time>
      </trkpt>
      <trkpt lat="44.6271" lon="4.97313">
        <ele>196.04</ele>
        <time>2019-03-03T08:21:01Z</time>
      </trkpt>
      <trkpt lat="44.62719" lon="4.97303">
        <ele>195.5</ele>
        <time>2019-03-03T08:21:13Z</time>
      </trkpt>
      <trkpt lat="44.62729" lon="4.97296">
        <ele>196.47</ele>
        <time>2019-03-03T08:21:28Z</time>
      </trkpt>
      <trkpt lat="44.62758" lon="4.97285">
        <ele>197.47</ele>
        <time>2019-03-03T08:21:51Z</time>
      </trkpt>
      <trkpt lat="44.62776" lon="4.97278">
        <ele>198.34</ele>
        <time>2019-03-03T08:22:06Z</time>
      </trkpt>
      <trkpt lat="44.62789" lon="4.97265">
        <ele>199.21</ele>
        <time>2019-03-03T08:22:20Z</time>
      </trkpt>
      <trkpt lat="44.62798" lon="4.9725">
        <ele>200.8</ele>
        <time>2019-03-03T08:22:33Z</time>
      </trkpt>
      <trkpt lat="44.62807" lon="4.97253">
        <ele>203.38</ele>
        <time>2019-03-03T08:22:48Z</time>
      </trkpt>
      <trkpt lat="44.62826" lon="4.97253">
        <ele>206.47</ele>
        <time>2019-03-03T08:23:03Z</time>
      </trkpt>
      <trkpt lat="44.62842" lon="4.97248">
        <ele>208.38</ele>
        <time>2019-03-03T08:23:20Z</time>
      </trkpt>
      <trkpt lat="44.62848" lon="4.97264">
        <ele>210.61</ele>
        <time>2019-03-03T08:23:31Z</time>
      </trkpt>
      <trkpt lat="44.62856" lon="4.97287">
        <ele>214.14</ele>
        <time>2019-03-03T08:23:50Z</time>
      </trkpt>
      <trkpt lat="44.62862" lon="4.97293">
        <ele>215.05</ele>
        <time>2019-03-03T08:23:58Z</time>
      </trkpt>
      <trkpt lat="44.62872" lon="4.97288">
        <ele>218.2</ele>
        <time>2019-03-03T08:24:12Z</time>
      </trkpt>
      <trkpt lat="44.62882" lon="4.97292">
        <ele>220.47</ele>
        <time>2019-03-03T08:24:26Z</time>
      </trkpt>
      <trkpt lat="44.62892" lon="4.97294">
        <ele>223.74</ele>
        <time>2019-03-03T08:24:40Z</time>
      </trkpt>
      <trkpt lat="44.62888" lon="4.97278">
        <ele>225.05</ele>
        <time>2019-03-03T08:24:55Z</time>
      </trkpt>
      <trkpt lat="44.62885" lon="4.97264">
        <ele>226.63</ele>
        <time>2019-03-03T08:25:06Z</time>
      </trkpt>
      <trkpt lat="44.62885" lon="4.9725">
        <ele>227.98</ele>
        <time>2019-03-03T08:25:18Z</time>
      </trkpt>
      <trkpt lat="44.62886" lon="4.9724">
        <ele>228.48</ele>
        <time>2019-03-03T08:25:36Z</time>
      </trkpt>
      <trkpt lat="44.62889" lon="4.97227">
        <ele>230.07</ele>
        <time>2019-03-03T08:25:51Z</time>
      </trkpt>
      <trkpt lat="44.62891" lon="4.97222">
        <ele>229.39</ele>
        <time>2019-03-03T08:25:55Z</time>
      </trkpt>
      <trkpt lat="44.62897" lon="4.97219">
        <ele>231.05</ele>
        <time>2019-03-03T08:26:03Z</time>
      </trkpt>
      <trkpt lat="44.62905" lon="4.97221">
        <ele>234.52</ele>
        <time>2019-03-03T08:26:13Z</time>
      </trkpt>
      <trkpt lat="44.6291" lon="4.97217">
        <ele>237.55</ele>
        <time>2019-03-03T08:26:23Z</time>
      </trkpt>
      <trkpt lat="44.62918" lon="4.97217">
        <ele>239.41</ele>
        <time>2019-03-03T08:26:38Z</time>
      </trkpt>
      <trkpt lat="44.62925" lon="4.97208">
        <ele>242.14</ele>
        <time>2019-03-03T08:26:51Z</time>
      </trkpt>
      <trkpt lat="44.62932" lon="4.97201">
        <ele>242.39</ele>
        <time>2019-03-03T08:27:05Z</time>
      </trkpt>
      <trkpt lat="44.62942" lon="4.97198">
        <ele>243.99</ele>
        <time>2019-03-03T08:27:20Z</time>
      </trkpt>
      <trkpt lat="44.62948" lon="4.97196">
        <ele>246.07</ele>
        <time>2019-03-03T08:27:27Z</time>
      </trkpt>
      <trkpt lat="44.6296" lon="4.97194">
        <ele>246.98</ele>
        <time>2019-03-03T08:27:42Z</time>
      </trkpt>
      <trkpt lat="44.62971" lon="4.97197">
        <ele>249.89</ele>
        <time>2019-03-03T08:27:59Z</time>
      </trkpt>
      <trkpt lat="44.62976" lon="4.97199">
        <ele>250.58</ele>
        <time>2019-03-03T08:28:07Z</time>
      </trkpt>
      <trkpt lat="44.62983" lon="4.97204">
        <ele>252.5</ele>
        <time>2019-03-03T08:28:19Z</time>
      </trkpt>
      <trkpt lat="44.62987" lon="4.97215">
        <ele>255.84</ele>
        <time>2019-03-03T08:28:33Z</time>
      </trkpt>
      <trkpt lat="44.62975" lon="4.97218">
        <ele>255.98</ele>
        <time>2019-03-03T08:28:51Z</time>
      </trkpt>
      <trkpt lat="44.62969" lon="4.97218">
        <ele>256.84</ele>
        <time>2019-03-03T08:28:58Z</time>
      </trkpt>
      <trkpt lat="44.62953" lon="4.97226">
        <ele>257.63</ele>
        <time>2019-03-03T08:29:18Z</time>
      </trkpt>
      <trkpt lat="44.62949" lon="4.97227">
        <ele>258.3</ele>
        <time>2019-03-03T08:29:33Z</time>
      </trkpt>
      <trkpt lat="44.62943" lon="4.97229">
        <ele>259.61</ele>
        <time>2019-03-03T08:29:50Z</time>
      </trkpt>
      <trkpt lat="44.62943" lon="4.97228">
        <ele>258.24</ele>
        <time>2019-03-03T08:30:14Z</time>
      </trkpt>
      <trkpt lat="44.62945" lon="4.97227">
        <ele>258.91</ele>
        <time>2019-03-03T08:30:36Z</time>
      </trkpt>
      <trkpt lat="44.62945" lon="4.97228">
        <ele>260.08</ele>
        <time>2019-03-03T08:30:59Z</time>
      </trkpt>
      <trkpt lat="44.62949" lon="4.97227">
        <ele>258.72</ele>
        <time>2019-03-03T08:31:22Z</time>
      </trkpt>
      <trkpt lat="44.6295" lon="4.97228">
        <ele>258.29</ele>
        <time>2019-03-03T08:31:24Z</time>
      </trkpt>
      <trkpt lat="44.62949" lon="4.97233">
        <ele>257.84</ele>
        <time>2019-03-03T08:31:32Z</time>
      </trkpt>
      <trkpt lat="44.62943" lon="4.97245">
        <ele>256.38</ele>
        <time>2019-03-03T08:31:48Z</time>
      </trkpt>
      <trkpt lat="44.62944" lon="4.97266">
        <ele>252.8</ele>
        <time>2019-03-03T08:32:07Z</time>
      </trkpt>
      <trkpt lat="44.62958" lon="4.97278">
        <ele>250.81</ele>
        <time>2019-03-03T08:32:27Z</time>
      </trkpt>
      <trkpt lat="44.62965" lon="4.97282">
        <ele>250.65</ele>
        <time>2019-03-03T08:32:35Z</time>
      </trkpt>
      <trkpt lat="44.62984" lon="4.97292">
        <ele>247.27</ele>
        <time>2019-03-03T08:32:56Z</time>
      </trkpt>
      <trkpt lat="44.63001" lon="4.973">
        <ele>245.35</ele>
        <time>2019-03-03T08:33:14Z</time>
      </trkpt>
      <trkpt lat="44.63017" lon="4.9731">
        <ele>243.65</ele>
        <time>2019-03-03T08:33:30Z</time>
      </trkpt>
      <trkpt lat="44.63035" lon="4.97315">
        <ele>242.1</ele>
        <time>2019-03-03T08:33:46Z</time>
      </trkpt>
      <trkpt lat="44.63061" lon="4.97323">
        <ele>240.93</ele>
        <time>2019-03-03T08:34:09Z</time>
      </trkpt>
      <trkpt lat="44.63082" lon="4.97332">
        <ele>240.32</ele>
        <time>2019-03-03T08:34:29Z</time>
      </trkpt>
      <trkpt lat="44.63105" lon="4.97348">
        <ele>238.97</ele>
        <time>2019-03-03T08:34:52Z</time>
      </trkpt>
      <trkpt lat="44.63121" lon="4.97367">
        <ele>236.34</ele>
        <time>2019-03-03T08:35:12Z</time>
      </trkpt>
      <trkpt lat="44.63122" lon="4.97368">
        <ele>236.23</ele>
        <time>2019-03-03T08:35:13Z</time>
      </trkpt>
      <trkpt lat="44.63136" lon="4.9739">
        <ele>233.08</ele>
        <time>2019-03-03T08:35:33Z</time>
      </trkpt>
      <trkpt lat="44.63143" lon="4.97404">
        <ele>231.32</ele>
        <time>2019-03-03T08:35:46Z</time>
      </trkpt>
      <trkpt lat="44.63152" lon="4.97404">
        <ele>232.64</ele>
        <time>2019-03-03T08:35:56Z</time>
      </trkpt>
      <trkpt lat="44.63165" lon="4.97386">
        <ele>231.79</ele>
        <time>2019-03-03T08:36:13Z</time>
      </trkpt>
      <trkpt lat="44.63172" lon="4.97369">
        <ele>228.81</ele>
        <time>2019-03-03T08:36:26Z</time>
      </trkpt>
      <trkpt lat="44.63174" lon="4.97353">
        <ele>227.74</ele>
        <time>2019-03-03T08:36:37Z</time>
      </trkpt>
      <trkpt lat="44.63175" lon="4.97335">
        <ele>223.98</ele>
        <time>2019-03-03T08:36:50Z</time>
      </trkpt>
      <trkpt lat="44.63174" lon="4.97332">
        <ele>223.09</ele>
        <time>2019-03-03T08:36:52Z</time>
      </trkpt>
      <trkpt lat="44.63174" lon="4.97321">
        <ele>220.95</ele>
        <time>2019-03-03T08:37:00Z</time>
      </trkpt>
      <trkpt lat="44.63173" lon="4.97304">
        <ele>217.65</ele>
        <time>2019-03-03T08:37:11Z</time>
      </trkpt>
      <trkpt lat="44.63168" lon="4.97284">
        <ele>214.32</ele>
        <time>2019-03-03T08:37:25Z</time>
      </trkpt>
      <trkpt lat="44.6316" lon="4.97254">
        <ele>211.9</ele>
        <time>2019-03-03T08:37:46Z</time>
      </trkpt>
      <trkpt lat="44.6316" lon="4.97249">
        <ele>211.99</ele>
        <time>2019-03-03T08:37:49Z</time>
      </trkpt>
      <trkpt lat="44.6317" lon="4.97237">
        <ele>209.75</ele>
        <time>2019-03-03T08:38:04Z</time>
      </trkpt>
      <trkpt lat="44.6319" lon="4.97229">
        <ele>207.59</ele>
        <time>2019-03-03T08:38:23Z</time>
      </trkpt>
      <trkpt lat="44.63213" lon="4.97221">
        <ele>206.6</ele>
        <time>2019-03-03T08:38:42Z</time>
      </trkpt>
      <trkpt lat="44.63238" lon="4.97209">
        <ele>206.99</ele>
        <time>2019-03-03T08:39:03Z</time>
      </trkpt>
      <trkpt lat="44.63257" lon="4.972">
        <ele>208.2</ele>
        <time>2019-03-03T08:39:21Z</time>
      </trkpt>
      <trkpt lat="44.6327" lon="4.97191">
        <ele>208.18</ele>
        <time>2019-03-03T08:39:35Z</time>
      </trkpt>
      <trkpt lat="44.63288" lon="4.97179">
        <ele>207.95</ele>
        <time>2019-03-03T08:39:52Z</time>
      </trkpt>
      <trkpt lat="44.63292" lon="4.97175">
        <ele>207.67</ele>
        <time>2019-03-03T08:39:57Z</time>
      </trkpt>
      <trkpt lat="44.63306" lon="4.97162">
        <ele>207.04</ele>
        <time>2019-03-03T08:40:12Z</time>
      </trkpt>
      <trkpt lat="44.63321" lon="4.97152">
        <ele>206.73</ele>
        <time>2019-03-03T08:40:26Z</time>
      </trkpt>
      <trkpt lat="44.63337" lon="4.97148">
        <ele>207.77</ele>
        <time>2019-03-03T08:40:43Z</time>
      </trkpt>
      <trkpt lat="44.63356" lon="4.9715">
        <ele>207.44</ele>
        <time>2019-03-03T08:40:57Z</time>
      </trkpt>
      <trkpt lat="44.63376" lon="4.97154">
        <ele>207.32</ele>
        <time>2019-03-03T08:41:13Z</time>
      </trkpt>
      <trkpt lat="44.63397" lon="4.97159">
        <ele>207.72</ele>
        <time>2019-03-03T08:41:30Z</time>
      </trkpt>
      <trkpt lat="44.63417" lon="4.97164">
        <ele>208.82</ele>
        <time>2019-03-03T08:41:48Z</time>
      </trkpt>
      <trkpt lat="44.63431" lon="4.9717">
        <ele>208.92</ele>
        <time>2019-03-03T08:42:01Z</time>
      </trkpt>
      <trkpt lat="44.63444" lon="4.97175">
        <ele>210.68</ele>
        <time>2019-03-03T08:42:15Z</time>
      </trkpt>
      <trkpt lat="44.63449" lon="4.97178">
        <ele>210.75</ele>
        <time>2019-03-03T08:42:21Z</time>
      </trkpt>
      <trkpt lat="44.63454" lon="4.97179">
        <ele>210.15</ele>
        <time>2019-03-03T08:42:25Z</time>
      </trkpt>
      <trkpt lat="44.63474" lon="4.97184">
        <ele>211.48</ele>
        <time>2019-03-03T08:42:42Z</time>
      </trkpt>
      <trkpt lat="44.63489" lon="4.97188">
        <ele>211.28</ele>
        <time>2019-03-03T08:42:55Z</time>
      </trkpt>
      <trkpt lat="44.63496" lon="4.97192">
        <ele>211.5</ele>
        <time>2019-03-03T08:43:04Z</time>
      </trkpt>
      <trkpt lat="44.63501" lon="4.97194">
        <ele>211.68</ele>
        <time>2019-03-03T08:43:08Z</time>
      </trkpt>
      <trkpt lat="44.63508" lon="4.97195">
        <ele>211.93</ele>
        <time>2019-03-03T08:43:15Z</time>
      </trkpt>
      <trkpt lat="44.63523" lon="4.97203">
        <ele>212.01</ele>
        <time>2019-03-03T08:43:31Z</time>
      </trkpt>
      <trkpt lat="44.63544" lon="4.97207">
        <ele>211.6</ele>
        <time>2019-03-03T08:43:48Z</time>
      </trkpt>
      <trkpt lat="44.63548" lon="4.97208">
        <ele>211.1</ele>
        <time>2019-03-03T08:43:52Z</time>
      </trkpt>
      <trkpt lat="44.63572" lon="4.9721">
        <ele>211.25</ele>
        <time>2019-03-03T08:44:10Z</time>
      </trkpt>
      <trkpt lat="44.63575" lon="4.97212">
        <ele>210.82</ele>
        <time>2019-03-03T08:44:15Z</time>
      </trkpt>
      <trkpt lat="44.63578" lon="4.97214">
        <ele>210.92</ele>
        <time>2019-03-03T08:44:18Z</time>
      </trkpt>
      <trkpt lat="44.63582" lon="4.97215">
        <ele>211.26</ele>
        <time>2019-03-03T08:44:22Z</time>
      </trkpt>
      <trkpt lat="44.63591" lon="4.9722">
        <ele>211.15</ele>
        <time>2019-03-03T08:44:37Z</time>
      </trkpt>
      <trkpt lat="44.63592" lon="4.9722">
        <ele>211.55</ele>
        <time>2019-03-03T08:44:38Z</time>
      </trkpt>
      <trkpt lat="44.63598" lon="4.97226">
        <ele>211.21</ele>
        <time>2019-03-03T08:44:45Z</time>
      </trkpt>
      <trkpt lat="44.63604" lon="4.97226">
        <ele>213.09</ele>
        <time>2019-03-03T08:44:53Z</time>
      </trkpt>
      <trkpt lat="44.63607" lon="4.97223">
        <ele>213.24</ele>
        <time>2019-03-03T08:45:00Z</time>
      </trkpt>
      <trkpt lat="44.6362" lon="4.97221">
        <ele>215.29</ele>
        <time>2019-03-03T08:45:15Z</time>
      </trkpt>
      <trkpt lat="44.6363" lon="4.9722">
        <ele>216.2</ele>
        <time>2019-03-03T08:45:25Z</time>
      </trkpt>
      <trkpt lat="44.63647" lon="4.9722">
        <ele>218.3</ele>
        <time>2019-03-03T08:45:40Z</time>
      </trkpt>
      <trkpt lat="44.63663" lon="4.97228">
        <ele>219.2</ele>
        <time>2019-03-03T08:45:58Z</time>
      </trkpt>
      <trkpt lat="44.6368" lon="4.97235">
        <ele>219.42</ele>
        <time>2019-03-03T08:46:15Z</time>
      </trkpt>
      <trkpt lat="44.63689" lon="4.9724">
        <ele>218.35</ele>
        <time>2019-03-03T08:46:24Z</time>
      </trkpt>
      <trkpt lat="44.63703" lon="4.97245">
        <ele>217.09</ele>
        <time>2019-03-03T08:46:38Z</time>
      </trkpt>
      <trkpt lat="44.63715" lon="4.9725">
        <ele>216.31</ele>
        <time>2019-03-03T08:46:53Z</time>
      </trkpt>
      <trkpt lat="44.63721" lon="4.97253">
        <ele>215.5</ele>
        <time>2019-03-03T08:46:59Z</time>
      </trkpt>
      <trkpt lat="44.63734" lon="4.97259">
        <ele>214.15</ele>
        <time>2019-03-03T08:47:15Z</time>
      </trkpt>
      <trkpt lat="44.63737" lon="4.97261">
        <ele>213.83</ele>
        <time>2019-03-03T08:47:18Z</time>
      </trkpt>
      <trkpt lat="44.6374" lon="4.97264">
        <ele>213.29</ele>
        <time>2019-03-03T08:47:21Z</time>
      </trkpt>
      <trkpt lat="44.63745" lon="4.97269">
        <ele>213.63</ele>
        <time>2019-03-03T08:47:26Z</time>
      </trkpt>
      <trkpt lat="44.63751" lon="4.97283">
        <ele>214.57</ele>
        <time>2019-03-03T08:47:37Z</time>
      </trkpt>
      <trkpt lat="44.6376" lon="4.97286">
        <ele>215.28</ele>
        <time>2019-03-03T08:47:52Z</time>
      </trkpt>
      <trkpt lat="44.63777" lon="4.97277">
        <ele>216.03</ele>
        <time>2019-03-03T08:48:09Z</time>
      </trkpt>
      <trkpt lat="44.63782" lon="4.97276">
        <ele>217.56</ele>
        <time>2019-03-03T08:48:13Z</time>
      </trkpt>
      <trkpt lat="44.638" lon="4.97257">
        <ele>219.49</ele>
        <time>2019-03-03T08:48:29Z</time>
      </trkpt>
      <trkpt lat="44.63802" lon="4.97242">
        <ele>221.81</ele>
        <time>2019-03-03T08:48:43Z</time>
      </trkpt>
      <trkpt lat="44.63806" lon="4.97231">
        <ele>223.86</ele>
        <time>2019-03-03T08:48:53Z</time>
      </trkpt>
      <trkpt lat="44.6381" lon="4.97217">
        <ele>226.5</ele>
        <time>2019-03-03T08:49:07Z</time>
      </trkpt>
      <trkpt lat="44.63812" lon="4.9721">
        <ele>228.15</ele>
        <time>2019-03-03T08:49:19Z</time>
      </trkpt>
      <trkpt lat="44.63822" lon="4.97205">
        <ele>230.82</ele>
        <time>2019-03-03T08:49:33Z</time>
      </trkpt>
      <trkpt lat="44.63835" lon="4.97207">
        <ele>232.57</ele>
        <time>2019-03-03T08:49:51Z</time>
      </trkpt>
      <trkpt lat="44.6385" lon="4.97206">
        <ele>235.44</ele>
        <time>2019-03-03T08:50:10Z</time>
      </trkpt>
      <trkpt lat="44.63857" lon="4.97205">
        <ele>236.1</ele>
        <time>2019-03-03T08:50:17Z</time>
      </trkpt>
      <trkpt lat="44.63871" lon="4.97206">
        <ele>237.95</ele>
        <time>2019-03-03T08:50:35Z</time>
      </trkpt>
      <trkpt lat="44.63879" lon="4.97207">
        <ele>238.4</ele>
        <time>2019-03-03T08:50:41Z</time>
      </trkpt>
      <trkpt lat="44.63892" lon="4.97213">
        <ele>239.72</ele>
        <time>2019-03-03T08:50:56Z</time>
      </trkpt>
      <trkpt lat="44.63905" lon="4.97223">
        <ele>241.21</ele>
        <time>2019-03-03T08:51:11Z</time>
      </trkpt>
      <trkpt lat="44.63905" lon="4.9722">
        <ele>241.1</ele>
        <time>2019-03-03T08:51:35Z</time>
      </trkpt>
      <trkpt lat="44.63909" lon="4.97223">
        <ele>240.57</ele>
        <time>2019-03-03T08:52:00Z</time>
      </trkpt>
      <trkpt lat="44.63909" lon="4.97223">
        <ele>241.89</ele>
        <time>2019-03-03T08:52:03Z</time>
      </trkpt>
      <trkpt lat="44.63912" lon="4.97233">
        <ele>242.41</ele>
        <time>2019-03-03T08:52:30Z</time>
      </trkpt>
      <trkpt lat="44.63927" lon="4.97249">
        <ele>244.82</ele>
        <time>2019-03-03T08:52:47Z</time>
      </trkpt>
      <trkpt lat="44.63939" lon="4.97262">
        <ele>246.33</ele>
        <time>2019-03-03T08:53:05Z</time>
      </trkpt>
      <trkpt lat="44.63952" lon="4.97273">
        <ele>249.53</ele>
        <time>2019-03-03T08:53:21Z</time>
      </trkpt>
      <trkpt lat="44.63952" lon="4.97273">
        <ele>249.58</ele>
        <time>2019-03-03T08:53:22Z</time>
      </trkpt>
      <trkpt lat="44.63964" lon="4.97292">
        <ele>252.59</ele>
        <time>2019-03-03T08:53:41Z</time>
      </trkpt>
      <trkpt lat="44.63976" lon="4.97308">
        <ele>254.51</ele>
        <time>2019-03-03T08:53:57Z</time>
      </trkpt>
      <trkpt lat="44.63983" lon="4.97316">
        <ele>255.66</ele>
        <time>2019-03-03T08:54:09Z</time>
      </trkpt>
      <trkpt lat="44.63992" lon="4.97329">
        <ele>255.15</ele>
        <time>2019-03-03T08:54:23Z</time>
      </trkpt>
      <trkpt lat="44.64003" lon="4.97343">
        <ele>257.78</ele>
        <time>2019-03-03T08:54:40Z</time>
      </trkpt>
      <trkpt lat="44.64017" lon="4.97355">
        <ele>260.91</ele>
        <time>2019-03-03T08:54:57Z</time>
      </trkpt>
      <trkpt lat="44.64027" lon="4.97357">
        <ele>262.77</ele>
        <time>2019-03-03T08:55:10Z</time>
      </trkpt>
      <trkpt lat="44.6405" lon="4.97364">
        <ele>264.41</ele>
        <time>2019-03-03T08:55:31Z</time>
      </trkpt>
      <trkpt lat="44.64063" lon="4.97377">
        <ele>267.34</ele>
        <time>2019-03-03T08:55:51Z</time>
      </trkpt>
      <trkpt lat="44.64081" lon="4.97384">
        <ele>269.4</ele>
        <time>2019-03-03T08:56:08Z</time>
      </trkpt>
      <trkpt lat="44.64095" lon="4.97388">
        <ele>272.56</ele>
        <time>2019-03-03T08:56:25Z</time>
      </trkpt>
      <trkpt lat="44.64107" lon="4.97385">
        <ele>274.19</ele>
        <time>2019-03-03T08:56:45Z</time>
      </trkpt>
      <trkpt lat="44.64111" lon="4.97384">
        <ele>275.97</ele>
        <time>2019-03-03T08:56:51Z</time>
      </trkpt>
      <trkpt lat="44.64118" lon="4.97381">
        <ele>277.62</ele>
        <time>2019-03-03T08:57:02Z</time>
      </trkpt>
      <trkpt lat="44.6414" lon="4.97389">
        <ele>280.06</ele>
        <time>2019-03-03T08:57:21Z</time>
      </trkpt>
      <trkpt lat="44.64152" lon="4.97397">
        <ele>281.98</ele>
        <time>2019-03-03T08:57:37Z</time>
      </trkpt>
      <trkpt lat="44.64163" lon="4.97413">
        <ele>285.1</ele>
        <time>2019-03-03T08:57:55Z</time>
      </trkpt>
      <trkpt lat="44.6418" lon="4.97425">
        <ele>288.15</ele>
        <time>2019-03-03T08:58:13Z</time>
      </trkpt>
      <trkpt lat="44.6419" lon="4.97435">
        <ele>290.23</ele>
        <time>2019-03-03T08:58:30Z</time>
      </trkpt>
      <trkpt lat="44.64201" lon="4.97441">
        <ele>293.38</ele>
        <time>2019-03-03T08:58:45Z</time>
      </trkpt>
      <trkpt lat="44.64217" lon="4.97455">
        <ele>295.54</ele>
        <time>2019-03-03T08:59:02Z</time>
      </trkpt>
      <trkpt lat="44.64227" lon="4.97463">
        <ele>297.69</ele>
        <time>2019-03-03T08:59:16Z</time>
      </trkpt>
      <trkpt lat="44.64237" lon="4.97466">
        <ele>299.78</ele>
        <time>2019-03-03T08:59:28Z</time>
      </trkpt>
      <trkpt lat="44.6425" lon="4.97468">
        <ele>301.49</ele>
        <time>2019-03-03T08:59:45Z</time>
      </trkpt>
      <trkpt lat="44.64259" lon="4.97464">
        <ele>304.7</ele>
        <time>2019-03-03T09:00:00Z</time>
      </trkpt>
      <trkpt lat="44.6427" lon="4.97459">
        <ele>307.69</ele>
        <time>2019-03-03T09:00:19Z</time>
      </trkpt>
      <trkpt lat="44.64284" lon="4.9746">
        <ele>310.43</ele>
        <time>2019-03-03T09:00:39Z</time>
      </trkpt>
      <trkpt lat="44.64287" lon="4.9746">
        <ele>310.88</ele>
        <time>2019-03-03T09:00:43Z</time>
      </trkpt>
      <trkpt lat="44.64305" lon="4.97458">
        <ele>314.92</ele>
        <time>2019-03-03T09:01:01Z</time>
      </trkpt>
      <trkpt lat="44.64322" lon="4.9746">
        <ele>318.16</ele>
        <time>2019-03-03T09:01:15Z</time>
      </trkpt>
      <trkpt lat="44.6433" lon="4.9746">
        <ele>318.58</ele>
        <time>2019-03-03T09:01:34Z</time>
      </trkpt>
      <trkpt lat="44.64334" lon="4.97458">
        <ele>319.38</ele>
        <time>2019-03-03T09:01:52Z</time>
      </trkpt>
      <trkpt lat="44.64338" lon="4.97458">
        <ele>318.09</ele>
        <time>2019-03-03T09:02:17Z</time>
      </trkpt>
      <trkpt lat="44.64336" lon="4.97457">
        <ele>318.89</ele>
        <time>2019-03-03T09:02:58Z</time>
      </trkpt>
      <trkpt lat="44.64336" lon="4.97457">
        <ele>318.51</ele>
        <time>2019-03-03T09:03:26Z</time>
      </trkpt>
      <trkpt lat="44.64335" lon="4.97457">
        <ele>318.08</ele>
        <time>2019-03-03T09:04:02Z</time>
      </trkpt>
      <trkpt lat="44.64335" lon="4.97456">
        <ele>317.65</ele>
        <time>2019-03-03T09:04:30Z</time>
      </trkpt>
      <trkpt lat="44.64335" lon="4.97454">
        <ele>319.62</ele>
        <time>2019-03-03T09:05:10Z</time>
      </trkpt>
      <trkpt lat="44.64335" lon="4.97453">
        <ele>318.81</ele>
        <time>2019-03-03T09:05:48Z</time>
      </trkpt>
      <trkpt lat="44.64336" lon="4.97455">
        <ele>319.74</ele>
        <time>2019-03-03T09:06:18Z</time>
      </trkpt>
      <trkpt lat="44.64338" lon="4.9746">
        <ele>320.95</ele>
        <time>2019-03-03T09:06:47Z</time>
      </trkpt>
      <trkpt lat="44.64338" lon="4.97458">
        <ele>320.64</ele>
        <time>2019-03-03T09:07:11Z</time>
      </trkpt>
      <trkpt lat="44.64347" lon="4.9746">
        <ele>323.47</ele>
        <time>2019-03-03T09:07:28Z</time>
      </trkpt>
      <trkpt lat="44.6436" lon="4.97457">
        <ele>325.42</ele>
        <time>2019-03-03T09:07:44Z</time>
      </trkpt>
      <trkpt lat="44.64375" lon="4.97449">
        <ele>327.61</ele>
        <time>2019-03-03T09:08:03Z</time>
      </trkpt>
      <trkpt lat="44.64385" lon="4.97444">
        <ele>330.74</ele>
        <time>2019-03-03T09:08:16Z</time>
      </trkpt>
      <trkpt lat="44.64396" lon="4.97436">
        <ele>334.19</ele>
        <time>2019-03-03T09:08:33Z</time>
      </trkpt>
      <trkpt lat="44.64403" lon="4.97426">
        <ele>337.2</ele>
        <time>2019-03-03T09:08:51Z</time>
      </trkpt>
      <trkpt lat="44.64409" lon="4.97422">
        <ele>340.55</ele>
        <time>2019-03-03T09:09:05Z</time>
      </trkpt>
      <trkpt lat="44.64418" lon="4.97418">
        <ele>344.02</ele>
        <time>2019-03-03T09:09:21Z</time>
      </trkpt>
      <trkpt lat="44.64425" lon="4.97412">
        <ele>346.24</ele>
        <time>2019-03-03T09:09:37Z</time>
      </trkpt>
      <trkpt lat="44.64429" lon="4.97407">
        <ele>349.42</ele>
        <time>2019-03-03T09:09:50Z</time>
      </trkpt>
      <trkpt lat="44.64433" lon="4.97404">
        <ele>350.53</ele>
        <time>2019-03-03T09:09:58Z</time>
      </trkpt>
      <trkpt lat="44.64445" lon="4.97401">
        <ele>353.02</ele>
        <time>2019-03-03T09:10:18Z</time>
      </trkpt>
      <trkpt lat="44.64449" lon="4.974">
        <ele>354.84</ele>
        <time>2019-03-03T09:10:23Z</time>
      </trkpt>
      <trkpt lat="44.64461" lon="4.97403">
        <ele>356.13</ele>
        <time>2019-03-03T09:10:42Z</time>
      </trkpt>
      <trkpt lat="44.64471" lon="4.97405">
        <ele>357.93</ele>
        <time>2019-03-03T09:10:54Z</time>
      </trkpt>
      <trkpt lat="44.64473" lon="4.97405">
        <ele>359.34</ele>
        <time>2019-03-03T09:10:57Z</time>
      </trkpt>
      <trkpt lat="44.64485" lon="4.97404">
        <ele>360.81</ele>
        <time>2019-03-03T09:11:12Z</time>
      </trkpt>
      <trkpt lat="44.64497" lon="4.97401">
        <ele>363.86</ele>
        <time>2019-03-03T09:11:28Z</time>
      </trkpt>
      <trkpt lat="44.64506" lon="4.97392">
        <ele>365.83</ele>
        <time>2019-03-03T09:11:43Z</time>
      </trkpt>
      <trkpt lat="44.64512" lon="4.97393">
        <ele>368.04</ele>
        <time>2019-03-03T09:12:03Z</time>
      </trkpt>
      <trkpt lat="44.64527" lon="4.9739">
        <ele>367.44</ele>
        <time>2019-03-03T09:12:20Z</time>
      </trkpt>
      <trkpt lat="44.64539" lon="4.97388">
        <ele>369.36</ele>
        <time>2019-03-03T09:12:34Z</time>
      </trkpt>
      <trkpt lat="44.64556" lon="4.97381">
        <ele>370.66</ele>
        <time>2019-03-03T09:12:52Z</time>
      </trkpt>
      <trkpt lat="44.64571" lon="4.97378">
        <ele>371.37</ele>
        <time>2019-03-03T09:13:07Z</time>
      </trkpt>
      <trkpt lat="44.64587" lon="4.97374">
        <ele>373.05</ele>
        <time>2019-03-03T09:13:24Z</time>
      </trkpt>
      <trkpt lat="44.64594" lon="4.97371">
        <ele>373.88</ele>
        <time>2019-03-03T09:13:31Z</time>
      </trkpt>
      <trkpt lat="44.64604" lon="4.97363">
        <ele>373.61</ele>
        <time>2019-03-03T09:13:45Z</time>
      </trkpt>
      <trkpt lat="44.64606" lon="4.97363">
        <ele>373.74</ele>
        <time>2019-03-03T09:14:05Z</time>
      </trkpt>
      <trkpt lat="44.64609" lon="4.97359">
        <ele>374.24</ele>
        <time>2019-03-03T09:14:39Z</time>
      </trkpt>
      <trkpt lat="44.64612" lon="4.97358">
        <ele>373.85</ele>
        <time>2019-03-03T09:15:14Z</time>
      </trkpt>
      <trkpt lat="44.64615" lon="4.97354">
        <ele>375.05</ele>
        <time>2019-03-03T09:15:30Z</time>
      </trkpt>
      <trkpt lat="44.64621" lon="4.97346">
        <ele>375.5</ele>
        <time>2019-03-03T09:15:45Z</time>
      </trkpt>
      <trkpt lat="44.64629" lon="4.97331">
        <ele>376.91</ele>
        <time>2019-03-03T09:16:00Z</time>
      </trkpt>
      <trkpt lat="44.64641" lon="4.97322">
        <ele>377.63</ele>
        <time>2019-03-03T09:16:16Z</time>
      </trkpt>
      <trkpt lat="44.64657" lon="4.97314">
        <ele>379.67</ele>
        <time>2019-03-03T09:16:32Z</time>
      </trkpt>
      <trkpt lat="44.64657" lon="4.97314">
        <ele>379.96</ele>
        <time>2019-03-03T09:16:33Z</time>
      </trkpt>
      <trkpt lat="44.6467" lon="4.973">
        <ele>381.37</ele>
        <time>2019-03-03T09:16:52Z</time>
      </trkpt>
      <trkpt lat="44.64684" lon="4.97303">
        <ele>382.4</ele>
        <time>2019-03-03T09:17:07Z</time>
      </trkpt>
      <trkpt lat="44.64688" lon="4.97306">
        <ele>383.46</ele>
        <time>2019-03-03T09:17:11Z</time>
      </trkpt>
      <trkpt lat="44.64692" lon="4.97307">
        <ele>384.44</ele>
        <time>2019-03-03T09:17:15Z</time>
      </trkpt>
      <trkpt lat="44.64713" lon="4.97315">
        <ele>385.63</ele>
        <time>2019-03-03T09:17:36Z</time>
      </trkpt>
      <trkpt lat="44.6473" lon="4.97321">
        <ele>386.9</ele>
        <time>2019-03-03T09:17:54Z</time>
      </trkpt>
      <trkpt lat="44.64739" lon="4.97321">
        <ele>387.54</ele>
        <time>2019-03-03T09:18:05Z</time>
      </trkpt>
      <trkpt lat="44.64751" lon="4.97323">
        <ele>390.68</ele>
        <time>2019-03-03T09:18:20Z</time>
      </trkpt>
      <trkpt lat="44.64766" lon="4.97328">
        <ele>392.99</ele>
        <time>2019-03-03T09:18:37Z</time>
      </trkpt>
      <trkpt lat="44.64778" lon="4.97333">
        <ele>394.78</ele>
        <time>2019-03-03T09:18:52Z</time>
      </trkpt>
      <trkpt lat="44.64782" lon="4.97335">
        <ele>394.74</ele>
        <time>2019-03-03T09:18:57Z</time>
      </trkpt>
      <trkpt lat="44.64795" lon="4.97344">
        <ele>396.08</ele>
        <time>2019-03-03T09:19:12Z</time>
      </trkpt>
      <trkpt lat="44.64808" lon="4.97352">
        <ele>397.1</ele>
        <time>2019-03-03T09:19:26Z</time>
      </trkpt>
      <trkpt lat="44.64821" lon="4.9736">
        <ele>397.49</ele>
        <time>2019-03-03T09:19:40Z</time>
      </trkpt>
      <trkpt lat="44.64836" lon="4.97367">
        <ele>399.21</ele>
        <time>2019-03-03T09:19:56Z</time>
      </trkpt>
      <trkpt lat="44.64841" lon="4.97369">
        <ele>399.71</ele>
        <time>2019-03-03T09:20:01Z</time>
      </trkpt>
      <trkpt lat="44.64845" lon="4.97371">
        <ele>400.27</ele>
        <time>2019-03-03T09:20:05Z</time>
      </trkpt>
      <trkpt lat="44.64858" lon="4.97379">
        <ele>401.19</ele>
        <time>2019-03-03T09:20:19Z</time>
      </trkpt>
      <trkpt lat="44.6487" lon="4.97388">
        <ele>404.32</ele>
        <time>2019-03-03T09:20:35Z</time>
      </trkpt>
      <trkpt lat="44.6488" lon="4.97386">
        <ele>405.61</ele>
        <time>2019-03-03T09:20:47Z</time>
      </trkpt>
      <trkpt lat="44.64892" lon="4.9739">
        <ele>407.1</ele>
        <time>2019-03-03T09:21:01Z</time>
      </trkpt>
      <trkpt lat="44.64901" lon="4.97394">
        <ele>407.2</ele>
        <time>2019-03-03T09:21:11Z</time>
      </trkpt>
      <trkpt lat="44.64906" lon="4.97396">
        <ele>407.46</ele>
        <time>2019-03-03T09:21:15Z</time>
      </trkpt>
      <trkpt lat="44.64922" lon="4.97404">
        <ele>408.71</ele>
        <time>2019-03-03T09:21:31Z</time>
      </trkpt>
      <trkpt lat="44.64939" lon="4.97403">
        <ele>407.63</ele>
        <time>2019-03-03T09:21:49Z</time>
      </trkpt>
      <trkpt lat="44.64959" lon="4.97402">
        <ele>408.08</ele>
        <time>2019-03-03T09:22:06Z</time>
      </trkpt>
      <trkpt lat="44.64978" lon="4.974">
        <ele>408.86</ele>
        <time>2019-03-03T09:22:24Z</time>
      </trkpt>
      <trkpt lat="44.65001" lon="4.97401">
        <ele>406.98</ele>
        <time>2019-03-03T09:22:47Z</time>
      </trkpt>
      <trkpt lat="44.6502" lon="4.97405">
        <ele>406.26</ele>
        <time>2019-03-03T09:23:06Z</time>
      </trkpt>
      <trkpt lat="44.65039" lon="4.97404">
        <ele>405.3</ele>
        <time>2019-03-03T09:23:25Z</time>
      </trkpt>
      <trkpt lat="44.65059" lon="4.97398">
        <ele>404.46</ele>
        <time>2019-03-03T09:23:41Z</time>
      </trkpt>
      <trkpt lat="44.65063" lon="4.97396">
        <ele>404.12</ele>
        <time>2019-03-03T09:23:45Z</time>
      </trkpt>
      <trkpt lat="44.65075" lon="4.97387">
        <ele>404.29</ele>
        <time>2019-03-03T09:24:03Z</time>
      </trkpt>
      <trkpt lat="44.65078" lon="4.97384">
        <ele>404.16</ele>
        <time>2019-03-03T09:24:07Z</time>
      </trkpt>
      <trkpt lat="44.65089" lon="4.97382">
        <ele>405.77</ele>
        <time>2019-03-03T09:24:19Z</time>
      </trkpt>
      <trkpt lat="44.65108" lon="4.97377">
        <ele>407.01</ele>
        <time>2019-03-03T09:24:40Z</time>
      </trkpt>
      <trkpt lat="44.65126" lon="4.97373">
        <ele>407.51</ele>
        <time>2019-03-03T09:24:58Z</time>
      </trkpt>
      <trkpt lat="44.65139" lon="4.97373">
        <ele>406.64</ele>
        <time>2019-03-03T09:25:12Z</time>
      </trkpt>
      <trkpt lat="44.65151" lon="4.97368">
        <ele>406.26</ele>
        <time>2019-03-03T09:25:26Z</time>
      </trkpt>
      <trkpt lat="44.65157" lon="4.97368">
        <ele>406.67</ele>
        <time>2019-03-03T09:25:43Z</time>
      </trkpt>
      <trkpt lat="44.65163" lon="4.97367">
        <ele>406.81</ele>
        <time>2019-03-03T09:26:09Z</time>
      </trkpt>
      <trkpt lat="44.6517" lon="4.97366">
        <ele>406.69</ele>
        <time>2019-03-03T09:26:21Z</time>
      </trkpt>
      <trkpt lat="44.65171" lon="4.97365">
        <ele>406.05</ele>
        <time>2019-03-03T09:26:23Z</time>
      </trkpt>
      <trkpt lat="44.65194" lon="4.97361">
        <ele>405.74</ele>
        <time>2019-03-03T09:26:44Z</time>
      </trkpt>
      <trkpt lat="44.65199" lon="4.97358">
        <ele>405.06</ele>
        <time>2019-03-03T09:26:48Z</time>
      </trkpt>
      <trkpt lat="44.65223" lon="4.97349">
        <ele>404.32</ele>
        <time>2019-03-03T09:27:12Z</time>
      </trkpt>
      <trkpt lat="44.65246" lon="4.97331">
        <ele>404.2</ele>
        <time>2019-03-03T09:27:36Z</time>
      </trkpt>
      <trkpt lat="44.65257" lon="4.97317">
        <ele>406.78</ele>
        <time>2019-03-03T09:27:50Z</time>
      </trkpt>
      <trkpt lat="44.65268" lon="4.97294">
        <ele>403.18</ele>
        <time>2019-03-03T09:28:07Z</time>
      </trkpt>
      <trkpt lat="44.65269" lon="4.97293">
        <ele>403.23</ele>
        <time>2019-03-03T09:28:08Z</time>
      </trkpt>
      <trkpt lat="44.65281" lon="4.9726">
        <ele>403.02</ele>
        <time>2019-03-03T09:28:31Z</time>
      </trkpt>
      <trkpt lat="44.65284" lon="4.97249">
        <ele>401.22</ele>
        <time>2019-03-03T09:28:38Z</time>
      </trkpt>
      <trkpt lat="44.65292" lon="4.9723">
        <ele>401.96</ele>
        <time>2019-03-03T09:28:53Z</time>
      </trkpt>
      <trkpt lat="44.65305" lon="4.97209">
        <ele>400.47</ele>
        <time>2019-03-03T09:29:11Z</time>
      </trkpt>
      <trkpt lat="44.65309" lon="4.97205">
        <ele>399.54</ele>
        <time>2019-03-03T09:29:15Z</time>
      </trkpt>
      <trkpt lat="44.65335" lon="4.97197">
        <ele>399.16</ele>
        <time>2019-03-03T09:29:38Z</time>
      </trkpt>
      <trkpt lat="44.65361" lon="4.97195">
        <ele>398.95</ele>
        <time>2019-03-03T09:30:00Z</time>
      </trkpt>
      <trkpt lat="44.6539" lon="4.97203">
        <ele>396.67</ele>
        <time>2019-03-03T09:30:24Z</time>
      </trkpt>
      <trkpt lat="44.65413" lon="4.97209">
        <ele>395.86</ele>
        <time>2019-03-03T09:30:45Z</time>
      </trkpt>
      <trkpt lat="44.65429" lon="4.97212">
        <ele>395.48</ele>
        <time>2019-03-03T09:31:02Z</time>
      </trkpt>
      <trkpt lat="44.65435" lon="4.97214">
        <ele>394.66</ele>
        <time>2019-03-03T09:31:09Z</time>
      </trkpt>
      <trkpt lat="44.65439" lon="4.97215">
        <ele>394.44</ele>
        <time>2019-03-03T09:31:13Z</time>
      </trkpt>
      <trkpt lat="44.65444" lon="4.97217">
        <ele>393.49</ele>
        <time>2019-03-03T09:31:19Z</time>
      </trkpt>
      <trkpt lat="44.65454" lon="4.9722">
        <ele>393.26</ele>
        <time>2019-03-03T09:31:28Z</time>
      </trkpt>
      <trkpt lat="44.65474" lon="4.97223">
        <ele>392.79</ele>
        <time>2019-03-03T09:31:44Z</time>
      </trkpt>
      <trkpt lat="44.6549" lon="4.97224">
        <ele>390.95</ele>
        <time>2019-03-03T09:32:00Z</time>
      </trkpt>
      <trkpt lat="44.65493" lon="4.97224">
        <ele>391.66</ele>
        <time>2019-03-03T09:32:04Z</time>
      </trkpt>
      <trkpt lat="44.65502" lon="4.97224">
        <ele>390.92</ele>
        <time>2019-03-03T09:32:11Z</time>
      </trkpt>
      <trkpt lat="44.65529" lon="4.97228">
        <ele>390</ele>
        <time>2019-03-03T09:32:33Z</time>
      </trkpt>
      <trkpt lat="44.65543" lon="4.9723">
        <ele>389.05</ele>
        <time>2019-03-03T09:32:52Z</time>
      </trkpt>
      <trkpt lat="44.6555" lon="4.9723">
        <ele>389.14</ele>
        <time>2019-03-03T09:32:58Z</time>
      </trkpt>
      <trkpt lat="44.65576" lon="4.97228">
        <ele>386.23</ele>
        <time>2019-03-03T09:33:18Z</time>
      </trkpt>
      <trkpt lat="44.65596" lon="4.97226">
        <ele>384.96</ele>
        <time>2019-03-03T09:33:35Z</time>
      </trkpt>
      <trkpt lat="44.6562" lon="4.97225">
        <ele>384.27</ele>
        <time>2019-03-03T09:33:57Z</time>
      </trkpt>
      <trkpt lat="44.65635" lon="4.9722">
        <ele>384.26</ele>
        <time>2019-03-03T09:34:17Z</time>
      </trkpt>
      <trkpt lat="44.65636" lon="4.9722">
        <ele>384.01</ele>
        <time>2019-03-03T09:34:51Z</time>
      </trkpt>
      <trkpt lat="44.65634" lon="4.9722">
        <ele>384.22</ele>
        <time>2019-03-03T09:36:08Z</time>
      </trkpt>
      <trkpt lat="44.65635" lon="4.97219">
        <ele>383.24</ele>
        <time>2019-03-03T09:37:22Z</time>
      </trkpt>
      <trkpt lat="44.65635" lon="4.9722">
        <ele>384.66</ele>
        <time>2019-03-03T09:38:05Z</time>
      </trkpt>
      <trkpt lat="44.65635" lon="4.97218">
        <ele>383.53</ele>
        <time>2019-03-03T09:39:32Z</time>
      </trkpt>
      <trkpt lat="44.65634" lon="4.97217">
        <ele>383.32</ele>
        <time>2019-03-03T09:40:53Z</time>
      </trkpt>
      <trkpt lat="44.65634" lon="4.97216">
        <ele>383.45</ele>
        <time>2019-03-03T09:42:22Z</time>
      </trkpt>
      <trkpt lat="44.65632" lon="4.97218">
        <ele>383.22</ele>
        <time>2019-03-03T09:43:39Z</time>
      </trkpt>
      <trkpt lat="44.65633" lon="4.9722">
        <ele>385</ele>
        <time>2019-03-03T09:44:21Z</time>
      </trkpt>
      <trkpt lat="44.65634" lon="4.97219">
        <ele>383.66</ele>
        <time>2019-03-03T09:44:49Z</time>
      </trkpt>
      <trkpt lat="44.65633" lon="4.97217">
        <ele>383.68</ele>
        <time>2019-03-03T09:46:18Z</time>
      </trkpt>
      <trkpt lat="44.65634" lon="4.97216">
        <ele>383.46</ele>
        <time>2019-03-03T09:47:43Z</time>
      </trkpt>
      <trkpt lat="44.65634" lon="4.97217">
        <ele>384.29</ele>
        <time>2019-03-03T09:49:06Z</time>
      </trkpt>
      <trkpt lat="44.65634" lon="4.97217">
        <ele>383.57</ele>
        <time>2019-03-03T09:50:28Z</time>
      </trkpt>
      <trkpt lat="44.65635" lon="4.97218">
        <ele>384.49</ele>
        <time>2019-03-03T09:50:55Z</time>
      </trkpt>
      <trkpt lat="44.65635" lon="4.97219">
        <ele>383.88</ele>
        <time>2019-03-03T09:51:34Z</time>
      </trkpt>
      <trkpt lat="44.65635" lon="4.97221">
        <ele>384.47</ele>
        <time>2019-03-03T09:51:53Z</time>
      </trkpt>
      <trkpt lat="44.65634" lon="4.97221">
        <ele>384.51</ele>
        <time>2019-03-03T09:52:20Z</time>
      </trkpt>
      <trkpt lat="44.65638" lon="4.9722">
        <ele>384.59</ele>
        <time>2019-03-03T09:52:44Z</time>
      </trkpt>
      <trkpt lat="44.65646" lon="4.97217">
        <ele>384.54</ele>
        <time>2019-03-03T09:52:57Z</time>
      </trkpt>
      <trkpt lat="44.65648" lon="4.97216">
        <ele>384.6</ele>
        <time>2019-03-03T09:53:02Z</time>
      </trkpt>
      <trkpt lat="44.6565" lon="4.97213">
        <ele>383.61</ele>
        <time>2019-03-03T09:53:05Z</time>
      </trkpt>
      <trkpt lat="44.6565" lon="4.972">
        <ele>383.51</ele>
        <time>2019-03-03T09:53:18Z</time>
      </trkpt>
      <trkpt lat="44.65643" lon="4.97171">
        <ele>381</ele>
        <time>2019-03-03T09:53:39Z</time>
      </trkpt>
      <trkpt lat="44.65643" lon="4.97168">
        <ele>380.39</ele>
        <time>2019-03-03T09:53:41Z</time>
      </trkpt>
      <trkpt lat="44.65637" lon="4.97136">
        <ele>380.17</ele>
        <time>2019-03-03T09:54:03Z</time>
      </trkpt>
      <trkpt lat="44.65634" lon="4.97103">
        <ele>379.78</ele>
        <time>2019-03-03T09:54:23Z</time>
      </trkpt>
      <trkpt lat="44.65634" lon="4.97065">
        <ele>380.31</ele>
        <time>2019-03-03T09:54:46Z</time>
      </trkpt>
      <trkpt lat="44.65638" lon="4.97039">
        <ele>379.99</ele>
        <time>2019-03-03T09:55:03Z</time>
      </trkpt>
      <trkpt lat="44.6564" lon="4.97035">
        <ele>380.13</ele>
        <time>2019-03-03T09:55:06Z</time>
      </trkpt>
      <trkpt lat="44.65648" lon="4.97007">
        <ele>380.54</ele>
        <time>2019-03-03T09:55:24Z</time>
      </trkpt>
      <trkpt lat="44.65653" lon="4.96983">
        <ele>379.43</ele>
        <time>2019-03-03T09:55:39Z</time>
      </trkpt>
      <trkpt lat="44.65656" lon="4.96959">
        <ele>379.17</ele>
        <time>2019-03-03T09:55:55Z</time>
      </trkpt>
      <trkpt lat="44.6566" lon="4.96926">
        <ele>379.74</ele>
        <time>2019-03-03T09:56:13Z</time>
      </trkpt>
      <trkpt lat="44.65666" lon="4.96897">
        <ele>378.71</ele>
        <time>2019-03-03T09:56:31Z</time>
      </trkpt>
      <trkpt lat="44.65672" lon="4.96865">
        <ele>380.14</ele>
        <time>2019-03-03T09:56:49Z</time>
      </trkpt>
      <trkpt lat="44.65668" lon="4.96838">
        <ele>380.1</ele>
        <time>2019-03-03T09:57:08Z</time>
      </trkpt>
      <trkpt lat="44.65667" lon="4.9683">
        <ele>380.28</ele>
        <time>2019-03-03T09:57:23Z</time>
      </trkpt>
      <trkpt lat="44.65667" lon="4.9683">
        <ele>380.74</ele>
        <time>2019-03-03T09:57:49Z</time>
      </trkpt>
      <trkpt lat="44.65666" lon="4.96829">
        <ele>381.08</ele>
        <time>2019-03-03T09:58:08Z</time>
      </trkpt>
      <trkpt lat="44.65668" lon="4.96827">
        <ele>380.08</ele>
        <time>2019-03-03T09:58:12Z</time>
      </trkpt>
      <trkpt lat="44.65669" lon="4.96823">
        <ele>379.99</ele>
        <time>2019-03-03T09:58:15Z</time>
      </trkpt>
      <trkpt lat="44.6567" lon="4.96817">
        <ele>380.22</ele>
        <time>2019-03-03T09:58:19Z</time>
      </trkpt>
      <trkpt lat="44.65678" lon="4.96789">
        <ele>380.41</ele>
        <time>2019-03-03T09:58:38Z</time>
      </trkpt>
      <trkpt lat="44.65685" lon="4.96765">
        <ele>379.77</ele>
        <time>2019-03-03T09:58:53Z</time>
      </trkpt>
      <trkpt lat="44.65694" lon="4.96737">
        <ele>380.56</ele>
        <time>2019-03-03T09:59:12Z</time>
      </trkpt>
      <trkpt lat="44.65699" lon="4.96725">
        <ele>381.74</ele>
        <time>2019-03-03T09:59:20Z</time>
      </trkpt>
      <trkpt lat="44.65703" lon="4.96711">
        <ele>381.61</ele>
        <time>2019-03-03T09:59:29Z</time>
      </trkpt>
      <trkpt lat="44.65704" lon="4.9671">
        <ele>381.09</ele>
        <time>2019-03-03T09:59:31Z</time>
      </trkpt>
      <trkpt lat="44.65714" lon="4.96684">
        <ele>382.57</ele>
        <time>2019-03-03T09:59:49Z</time>
      </trkpt>
      <trkpt lat="44.65719" lon="4.96668">
        <ele>383.32</ele>
        <time>2019-03-03T10:00:02Z</time>
      </trkpt>
      <trkpt lat="44.65719" lon="4.96652">
        <ele>384.19</ele>
        <time>2019-03-03T10:00:14Z</time>
      </trkpt>
      <trkpt lat="44.65716" lon="4.96644">
        <ele>384.08</ele>
        <time>2019-03-03T10:00:20Z</time>
      </trkpt>
      <trkpt lat="44.65701" lon="4.96636">
        <ele>384.11</ele>
        <time>2019-03-03T10:00:33Z</time>
      </trkpt>
      <trkpt lat="44.65694" lon="4.9663">
        <ele>383.89</ele>
        <time>2019-03-03T10:00:39Z</time>
      </trkpt>
      <trkpt lat="44.65676" lon="4.96614">
        <ele>383.52</ele>
        <time>2019-03-03T10:00:56Z</time>
      </trkpt>
      <trkpt lat="44.65667" lon="4.96605">
        <ele>383.25</ele>
        <time>2019-03-03T10:01:05Z</time>
      </trkpt>
      <trkpt lat="44.65652" lon="4.96597">
        <ele>383.51</ele>
        <time>2019-03-03T10:01:20Z</time>
      </trkpt>
      <trkpt lat="44.65634" lon="4.96585">
        <ele>384.19</ele>
        <time>2019-03-03T10:01:37Z</time>
      </trkpt>
      <trkpt lat="44.65625" lon="4.96576">
        <ele>382.77</ele>
        <time>2019-03-03T10:01:46Z</time>
      </trkpt>
      <trkpt lat="44.6561" lon="4.96557">
        <ele>383.88</ele>
        <time>2019-03-03T10:02:02Z</time>
      </trkpt>
      <trkpt lat="44.65598" lon="4.96533">
        <ele>384.23</ele>
        <time>2019-03-03T10:02:18Z</time>
      </trkpt>
      <trkpt lat="44.65593" lon="4.96525">
        <ele>384.09</ele>
        <time>2019-03-03T10:02:25Z</time>
      </trkpt>
      <trkpt lat="44.65581" lon="4.96505">
        <ele>385.5</ele>
        <time>2019-03-03T10:02:40Z</time>
      </trkpt>
      <trkpt lat="44.65577" lon="4.96499">
        <ele>384.53</ele>
        <time>2019-03-03T10:02:46Z</time>
      </trkpt>
      <trkpt lat="44.65569" lon="4.96488">
        <ele>385.27</ele>
        <time>2019-03-03T10:02:56Z</time>
      </trkpt>
      <trkpt lat="44.65556" lon="4.96466">
        <ele>385.36</ele>
        <time>2019-03-03T10:03:13Z</time>
      </trkpt>
      <trkpt lat="44.65554" lon="4.96463">
        <ele>385.85</ele>
        <time>2019-03-03T10:03:15Z</time>
      </trkpt>
      <trkpt lat="44.65543" lon="4.96439">
        <ele>386.25</ele>
        <time>2019-03-03T10:03:31Z</time>
      </trkpt>
      <trkpt lat="44.65535" lon="4.96411">
        <ele>386.52</ele>
        <time>2019-03-03T10:03:47Z</time>
      </trkpt>
      <trkpt lat="44.65535" lon="4.96388">
        <ele>387.64</ele>
        <time>2019-03-03T10:04:03Z</time>
      </trkpt>
      <trkpt lat="44.65533" lon="4.96379">
        <ele>387.64</ele>
        <time>2019-03-03T10:04:09Z</time>
      </trkpt>
      <trkpt lat="44.6553" lon="4.9636">
        <ele>390.1</ele>
        <time>2019-03-03T10:04:25Z</time>
      </trkpt>
      <trkpt lat="44.65525" lon="4.96343">
        <ele>392.29</ele>
        <time>2019-03-03T10:04:42Z</time>
      </trkpt>
      <trkpt lat="44.6552" lon="4.96322">
        <ele>395.43</ele>
        <time>2019-03-03T10:04:58Z</time>
      </trkpt>
      <trkpt lat="44.65515" lon="4.96305">
        <ele>396.95</ele>
        <time>2019-03-03T10:05:11Z</time>
      </trkpt>
      <trkpt lat="44.65514" lon="4.96299">
        <ele>398.37</ele>
        <time>2019-03-03T10:05:16Z</time>
      </trkpt>
      <trkpt lat="44.65518" lon="4.96287">
        <ele>399.69</ele>
        <time>2019-03-03T10:05:30Z</time>
      </trkpt>
      <trkpt lat="44.6552" lon="4.96278">
        <ele>400.48</ele>
        <time>2019-03-03T10:05:37Z</time>
      </trkpt>
      <trkpt lat="44.65527" lon="4.96264">
        <ele>402.26</ele>
        <time>2019-03-03T10:05:50Z</time>
      </trkpt>
      <trkpt lat="44.65537" lon="4.96251">
        <ele>404.88</ele>
        <time>2019-03-03T10:06:08Z</time>
      </trkpt>
      <trkpt lat="44.65542" lon="4.96239">
        <ele>408.1</ele>
        <time>2019-03-03T10:06:23Z</time>
      </trkpt>
      <trkpt lat="44.6555" lon="4.96225">
        <ele>409.89</ele>
        <time>2019-03-03T10:06:40Z</time>
      </trkpt>
      <trkpt lat="44.65555" lon="4.96215">
        <ele>412.09</ele>
        <time>2019-03-03T10:06:53Z</time>
      </trkpt>
      <trkpt lat="44.65563" lon="4.9621">
        <ele>415.13</ele>
        <time>2019-03-03T10:07:07Z</time>
      </trkpt>
      <trkpt lat="44.65568" lon="4.96209">
        <ele>416.11</ele>
        <time>2019-03-03T10:07:26Z</time>
      </trkpt>
      <trkpt lat="44.65572" lon="4.96206">
        <ele>417.1</ele>
        <time>2019-03-03T10:07:48Z</time>
      </trkpt>
      <trkpt lat="44.6557" lon="4.96205">
        <ele>416.49</ele>
        <time>2019-03-03T10:08:14Z</time>
      </trkpt>
      <trkpt lat="44.65569" lon="4.96207">
        <ele>416.16</ele>
        <time>2019-03-03T10:08:55Z</time>
      </trkpt>
      <trkpt lat="44.65569" lon="4.9621">
        <ele>416.52</ele>
        <time>2019-03-03T10:09:27Z</time>
      </trkpt>
      <trkpt lat="44.65572" lon="4.96209">
        <ele>416.65</ele>
        <time>2019-03-03T10:09:59Z</time>
      </trkpt>
      <trkpt lat="44.65571" lon="4.96209">
        <ele>416.61</ele>
        <time>2019-03-03T10:10:35Z</time>
      </trkpt>
      <trkpt lat="44.65569" lon="4.96212">
        <ele>417.12</ele>
        <time>2019-03-03T10:11:07Z</time>
      </trkpt>
      <trkpt lat="44.65565" lon="4.96213">
        <ele>415.06</ele>
        <time>2019-03-03T10:11:28Z</time>
      </trkpt>
      <trkpt lat="44.65557" lon="4.96216">
        <ele>411.67</ele>
        <time>2019-03-03T10:11:40Z</time>
      </trkpt>
      <trkpt lat="44.65556" lon="4.96216">
        <ele>411.59</ele>
        <time>2019-03-03T10:11:41Z</time>
      </trkpt>
      <trkpt lat="44.6555" lon="4.96221">
        <ele>410.31</ele>
        <time>2019-03-03T10:11:48Z</time>
      </trkpt>
      <trkpt lat="44.65541" lon="4.96237">
        <ele>407.59</ele>
        <time>2019-03-03T10:12:03Z</time>
      </trkpt>
      <trkpt lat="44.65535" lon="4.96249">
        <ele>405</ele>
        <time>2019-03-03T10:12:17Z</time>
      </trkpt>
      <trkpt lat="44.65532" lon="4.96249">
        <ele>404.55</ele>
        <time>2019-03-03T10:12:37Z</time>
      </trkpt>
      <trkpt lat="44.65536" lon="4.96252">
        <ele>403.91</ele>
        <time>2019-03-03T10:13:03Z</time>
      </trkpt>
      <trkpt lat="44.65532" lon="4.96252">
        <ele>403.73</ele>
        <time>2019-03-03T10:13:30Z</time>
      </trkpt>
      <trkpt lat="44.65529" lon="4.96253">
        <ele>402.97</ele>
        <time>2019-03-03T10:13:53Z</time>
      </trkpt>
      <trkpt lat="44.65529" lon="4.96239">
        <ele>403.21</ele>
        <time>2019-03-03T10:14:18Z</time>
      </trkpt>
      <trkpt lat="44.65522" lon="4.96236">
        <ele>403.58</ele>
        <time>2019-03-03T10:14:26Z</time>
      </trkpt>
      <trkpt lat="44.6551" lon="4.96234">
        <ele>405.1</ele>
        <time>2019-03-03T10:14:38Z</time>
      </trkpt>
      <trkpt lat="44.65495" lon="4.96234">
        <ele>405.18</ele>
        <time>2019-03-03T10:14:54Z</time>
      </trkpt>
      <trkpt lat="44.65479" lon="4.96232">
        <ele>406.45</ele>
        <time>2019-03-03T10:15:09Z</time>
      </trkpt>
      <trkpt lat="44.65471" lon="4.9622">
        <ele>408.59</ele>
        <time>2019-03-03T10:15:23Z</time>
      </trkpt>
      <trkpt lat="44.65472" lon="4.96216">
        <ele>409.88</ele>
        <time>2019-03-03T10:15:26Z</time>
      </trkpt>
      <trkpt lat="44.65465" lon="4.96209">
        <ele>412.93</ele>
        <time>2019-03-03T10:15:41Z</time>
      </trkpt>
      <trkpt lat="44.65453" lon="4.96202">
        <ele>415.45</ele>
        <time>2019-03-03T10:15:59Z</time>
      </trkpt>
      <trkpt lat="44.65443" lon="4.96199">
        <ele>418.59</ele>
        <time>2019-03-03T10:16:13Z</time>
      </trkpt>
      <trkpt lat="44.65431" lon="4.96199">
        <ele>419.42</ele>
        <time>2019-03-03T10:16:29Z</time>
      </trkpt>
      <trkpt lat="44.65414" lon="4.96198">
        <ele>421.97</ele>
        <time>2019-03-03T10:16:46Z</time>
      </trkpt>
      <trkpt lat="44.65403" lon="4.9619">
        <ele>423.44</ele>
        <time>2019-03-03T10:17:01Z</time>
      </trkpt>
      <trkpt lat="44.6539" lon="4.96178">
        <ele>424.49</ele>
        <time>2019-03-03T10:17:17Z</time>
      </trkpt>
      <trkpt lat="44.65381" lon="4.96161">
        <ele>425.34</ele>
        <time>2019-03-03T10:17:33Z</time>
      </trkpt>
      <trkpt lat="44.65377" lon="4.96144">
        <ele>427.19</ele>
        <time>2019-03-03T10:17:48Z</time>
      </trkpt>
      <trkpt lat="44.65371" lon="4.96135">
        <ele>427.65</ele>
        <time>2019-03-03T10:17:59Z</time>
      </trkpt>
      <trkpt lat="44.65366" lon="4.96117">
        <ele>429.52</ele>
        <time>2019-03-03T10:18:18Z</time>
      </trkpt>
      <trkpt lat="44.65357" lon="4.96101">
        <ele>432.65</ele>
        <time>2019-03-03T10:18:33Z</time>
      </trkpt>
      <trkpt lat="44.65347" lon="4.96081">
        <ele>432.84</ele>
        <time>2019-03-03T10:18:50Z</time>
      </trkpt>
      <trkpt lat="44.65334" lon="4.96073">
        <ele>433.25</ele>
        <time>2019-03-03T10:19:04Z</time>
      </trkpt>
      <trkpt lat="44.65324" lon="4.96066">
        <ele>432.19</ele>
        <time>2019-03-03T10:19:15Z</time>
      </trkpt>
      <trkpt lat="44.65304" lon="4.96056">
        <ele>432.23</ele>
        <time>2019-03-03T10:19:32Z</time>
      </trkpt>
      <trkpt lat="44.65302" lon="4.96054">
        <ele>432.29</ele>
        <time>2019-03-03T10:19:34Z</time>
      </trkpt>
      <trkpt lat="44.65286" lon="4.96036">
        <ele>433.2</ele>
        <time>2019-03-03T10:19:54Z</time>
      </trkpt>
      <trkpt lat="44.65273" lon="4.96015">
        <ele>433.85</ele>
        <time>2019-03-03T10:20:13Z</time>
      </trkpt>
      <trkpt lat="44.65274" lon="4.96006">
        <ele>434.24</ele>
        <time>2019-03-03T10:20:20Z</time>
      </trkpt>
      <trkpt lat="44.65277" lon="4.95999">
        <ele>435.2</ele>
        <time>2019-03-03T10:20:25Z</time>
      </trkpt>
      <trkpt lat="44.65284" lon="4.95988">
        <ele>435.2</ele>
        <time>2019-03-03T10:20:36Z</time>
      </trkpt>
      <trkpt lat="44.65293" lon="4.95978">
        <ele>435.56</ele>
        <time>2019-03-03T10:20:49Z</time>
      </trkpt>
      <trkpt lat="44.65306" lon="4.95971">
        <ele>434.21</ele>
        <time>2019-03-03T10:21:04Z</time>
      </trkpt>
      <trkpt lat="44.6531" lon="4.95969">
        <ele>434.63</ele>
        <time>2019-03-03T10:21:07Z</time>
      </trkpt>
      <trkpt lat="44.65322" lon="4.95956">
        <ele>432.99</ele>
        <time>2019-03-03T10:21:23Z</time>
      </trkpt>
      <trkpt lat="44.65341" lon="4.95948">
        <ele>430.68</ele>
        <time>2019-03-03T10:21:43Z</time>
      </trkpt>
      <trkpt lat="44.65344" lon="4.95948">
        <ele>430.72</ele>
        <time>2019-03-03T10:21:46Z</time>
      </trkpt>
      <trkpt lat="44.65357" lon="4.9594">
        <ele>429.95</ele>
        <time>2019-03-03T10:22:00Z</time>
      </trkpt>
      <trkpt lat="44.65377" lon="4.95936">
        <ele>428.59</ele>
        <time>2019-03-03T10:22:21Z</time>
      </trkpt>
      <trkpt lat="44.65391" lon="4.95921">
        <ele>426.76</ele>
        <time>2019-03-03T10:22:40Z</time>
      </trkpt>
      <trkpt lat="44.65403" lon="4.95909">
        <ele>426.34</ele>
        <time>2019-03-03T10:23:00Z</time>
      </trkpt>
      <trkpt lat="44.6542" lon="4.95901">
        <ele>424.97</ele>
        <time>2019-03-03T10:23:16Z</time>
      </trkpt>
      <trkpt lat="44.6544" lon="4.95893">
        <ele>424.5</ele>
        <time>2019-03-03T10:23:33Z</time>
      </trkpt>
      <trkpt lat="44.65451" lon="4.95891">
        <ele>424.07</ele>
        <time>2019-03-03T10:23:38Z</time>
      </trkpt>
      <trkpt lat="44.65467" lon="4.95881">
        <ele>424.64</ele>
        <time>2019-03-03T10:23:50Z</time>
      </trkpt>
      <trkpt lat="44.65478" lon="4.95875">
        <ele>423.17</ele>
        <time>2019-03-03T10:24:00Z</time>
      </trkpt>
      <trkpt lat="44.65493" lon="4.95863">
        <ele>423.14</ele>
        <time>2019-03-03T10:24:15Z</time>
      </trkpt>
      <trkpt lat="44.6551" lon="4.95855">
        <ele>422.13</ele>
        <time>2019-03-03T10:24:31Z</time>
      </trkpt>
      <trkpt lat="44.65528" lon="4.95847">
        <ele>421.94</ele>
        <time>2019-03-03T10:24:43Z</time>
      </trkpt>
      <trkpt lat="44.6554" lon="4.95833">
        <ele>421.23</ele>
        <time>2019-03-03T10:24:57Z</time>
      </trkpt>
      <trkpt lat="44.65541" lon="4.95831">
        <ele>421.07</ele>
        <time>2019-03-03T10:24:59Z</time>
      </trkpt>
      <trkpt lat="44.65557" lon="4.95814">
        <ele>421.08</ele>
        <time>2019-03-03T10:25:14Z</time>
      </trkpt>
      <trkpt lat="44.65558" lon="4.95813">
        <ele>421.25</ele>
        <time>2019-03-03T10:25:15Z</time>
      </trkpt>
      <trkpt lat="44.6556" lon="4.95804">
        <ele>421.96</ele>
        <time>2019-03-03T10:25:20Z</time>
      </trkpt>
      <trkpt lat="44.65565" lon="4.95792">
        <ele>421.62</ele>
        <time>2019-03-03T10:25:30Z</time>
      </trkpt>
      <trkpt lat="44.65563" lon="4.9577">
        <ele>421.88</ele>
        <time>2019-03-03T10:25:44Z</time>
      </trkpt>
      <trkpt lat="44.65558" lon="4.95758">
        <ele>421.75</ele>
        <time>2019-03-03T10:25:58Z</time>
      </trkpt>
      <trkpt lat="44.65555" lon="4.95755">
        <ele>421.99</ele>
        <time>2019-03-03T10:26:23Z</time>
      </trkpt>
      <trkpt lat="44.65553" lon="4.95751">
        <ele>422.46</ele>
        <time>2019-03-03T10:26:50Z</time>
      </trkpt>
      <trkpt lat="44.65544" lon="4.95742">
        <ele>422.72</ele>
        <time>2019-03-03T10:27:06Z</time>
      </trkpt>
      <trkpt lat="44.6553" lon="4.95736">
        <ele>423.03</ele>
        <time>2019-03-03T10:27:22Z</time>
      </trkpt>
      <trkpt lat="44.6553" lon="4.95721">
        <ele>424.14</ele>
        <time>2019-03-03T10:27:39Z</time>
      </trkpt>
      <trkpt lat="44.65538" lon="4.95712">
        <ele>424.51</ele>
        <time>2019-03-03T10:27:54Z</time>
      </trkpt>
      <trkpt lat="44.65551" lon="4.95706">
        <ele>424.71</ele>
        <time>2019-03-03T10:28:12Z</time>
      </trkpt>
      <trkpt lat="44.65563" lon="4.957">
        <ele>425.24</ele>
        <time>2019-03-03T10:28:26Z</time>
      </trkpt>
      <trkpt lat="44.65577" lon="4.95689">
        <ele>426.41</ele>
        <time>2019-03-03T10:28:41Z</time>
      </trkpt>
      <trkpt lat="44.65586" lon="4.95672">
        <ele>427.26</ele>
        <time>2019-03-03T10:28:55Z</time>
      </trkpt>
      <trkpt lat="44.656" lon="4.95662">
        <ele>428.16</ele>
        <time>2019-03-03T10:29:11Z</time>
      </trkpt>
      <trkpt lat="44.65616" lon="4.95652">
        <ele>428.61</ele>
        <time>2019-03-03T10:29:25Z</time>
      </trkpt>
      <trkpt lat="44.65631" lon="4.9564">
        <ele>429.42</ele>
        <time>2019-03-03T10:29:42Z</time>
      </trkpt>
      <trkpt lat="44.65653" lon="4.95637">
        <ele>429.7</ele>
        <time>2019-03-03T10:29:58Z</time>
      </trkpt>
      <trkpt lat="44.65668" lon="4.95629">
        <ele>431.11</ele>
        <time>2019-03-03T10:30:13Z</time>
      </trkpt>
      <trkpt lat="44.6568" lon="4.95617">
        <ele>431.2</ele>
        <time>2019-03-03T10:30:28Z</time>
      </trkpt>
      <trkpt lat="44.65693" lon="4.95605">
        <ele>431.6</ele>
        <time>2019-03-03T10:30:41Z</time>
      </trkpt>
      <trkpt lat="44.65704" lon="4.95594">
        <ele>432.34</ele>
        <time>2019-03-03T10:30:56Z</time>
      </trkpt>
      <trkpt lat="44.65715" lon="4.95583">
        <ele>431.99</ele>
        <time>2019-03-03T10:31:10Z</time>
      </trkpt>
      <trkpt lat="44.65718" lon="4.95581">
        <ele>432.82</ele>
        <time>2019-03-03T10:31:13Z</time>
      </trkpt>
      <trkpt lat="44.6572" lon="4.95578">
        <ele>432.48</ele>
        <time>2019-03-03T10:31:16Z</time>
      </trkpt>
      <trkpt lat="44.65736" lon="4.95563">
        <ele>432.29</ele>
        <time>2019-03-03T10:31:34Z</time>
      </trkpt>
      <trkpt lat="44.65746" lon="4.95551">
        <ele>431.43</ele>
        <time>2019-03-03T10:31:47Z</time>
      </trkpt>
      <trkpt lat="44.65757" lon="4.95539">
        <ele>430.97</ele>
        <time>2019-03-03T10:32:02Z</time>
      </trkpt>
      <trkpt lat="44.65767" lon="4.9553">
        <ele>430.37</ele>
        <time>2019-03-03T10:32:16Z</time>
      </trkpt>
      <trkpt lat="44.65778" lon="4.95521">
        <ele>429.66</ele>
        <time>2019-03-03T10:32:32Z</time>
      </trkpt>
      <trkpt lat="44.65792" lon="4.95514">
        <ele>428.37</ele>
        <time>2019-03-03T10:32:46Z</time>
      </trkpt>
      <trkpt lat="44.65801" lon="4.95507">
        <ele>427.16</ele>
        <time>2019-03-03T10:32:59Z</time>
      </trkpt>
      <trkpt lat="44.65812" lon="4.95498">
        <ele>426.63</ele>
        <time>2019-03-03T10:33:13Z</time>
      </trkpt>
      <trkpt lat="44.65824" lon="4.9549">
        <ele>425.92</ele>
        <time>2019-03-03T10:33:26Z</time>
      </trkpt>
      <trkpt lat="44.65828" lon="4.95486">
        <ele>426.06</ele>
        <time>2019-03-03T10:33:32Z</time>
      </trkpt>
      <trkpt lat="44.65839" lon="4.95477">
        <ele>425.47</ele>
        <time>2019-03-03T10:33:46Z</time>
      </trkpt>
      <trkpt lat="44.65845" lon="4.95467">
        <ele>424.85</ele>
        <time>2019-03-03T10:34:03Z</time>
      </trkpt>
      <trkpt lat="44.65846" lon="4.95451">
        <ele>423.55</ele>
        <time>2019-03-03T10:34:20Z</time>
      </trkpt>
      <trkpt lat="44.65846" lon="4.95437">
        <ele>423.55</ele>
        <time>2019-03-03T10:34:35Z</time>
      </trkpt>
      <trkpt lat="44.65845" lon="4.95426">
        <ele>422.65</ele>
        <time>2019-03-03T10:34:48Z</time>
      </trkpt>
      <trkpt lat="44.65839" lon="4.95409">
        <ele>421.8</ele>
        <time>2019-03-03T10:35:02Z</time>
      </trkpt>
      <trkpt lat="44.65833" lon="4.95381">
        <ele>421.6</ele>
        <time>2019-03-03T10:35:18Z</time>
      </trkpt>
      <trkpt lat="44.65831" lon="4.9537">
        <ele>421.31</ele>
        <time>2019-03-03T10:35:26Z</time>
      </trkpt>
      <trkpt lat="44.6583" lon="4.95357">
        <ele>420.9</ele>
        <time>2019-03-03T10:35:33Z</time>
      </trkpt>
      <trkpt lat="44.65826" lon="4.95324">
        <ele>419.83</ele>
        <time>2019-03-03T10:35:53Z</time>
      </trkpt>
      <trkpt lat="44.65822" lon="4.95298">
        <ele>419.44</ele>
        <time>2019-03-03T10:36:13Z</time>
      </trkpt>
      <trkpt lat="44.65811" lon="4.95288">
        <ele>418.65</ele>
        <time>2019-03-03T10:36:28Z</time>
      </trkpt>
      <trkpt lat="44.6581" lon="4.95288">
        <ele>419.55</ele>
        <time>2019-03-03T10:36:30Z</time>
      </trkpt>
      <trkpt lat="44.65798" lon="4.95292">
        <ele>417.4</ele>
        <time>2019-03-03T10:36:45Z</time>
      </trkpt>
      <trkpt lat="44.65793" lon="4.95292">
        <ele>417</ele>
        <time>2019-03-03T10:36:49Z</time>
      </trkpt>
      <trkpt lat="44.65772" lon="4.95286">
        <ele>413.94</ele>
        <time>2019-03-03T10:37:06Z</time>
      </trkpt>
      <trkpt lat="44.65759" lon="4.95277">
        <ele>411.95</ele>
        <time>2019-03-03T10:37:18Z</time>
      </trkpt>
      <trkpt lat="44.65747" lon="4.95274">
        <ele>411.41</ele>
        <time>2019-03-03T10:37:29Z</time>
      </trkpt>
      <trkpt lat="44.65732" lon="4.95271">
        <ele>410.44</ele>
        <time>2019-03-03T10:37:41Z</time>
      </trkpt>
      <trkpt lat="44.65719" lon="4.95269">
        <ele>409.7</ele>
        <time>2019-03-03T10:37:53Z</time>
      </trkpt>
      <trkpt lat="44.65707" lon="4.9525">
        <ele>406.48</ele>
        <time>2019-03-03T10:38:10Z</time>
      </trkpt>
      <trkpt lat="44.65695" lon="4.95223">
        <ele>405.24</ele>
        <time>2019-03-03T10:38:28Z</time>
      </trkpt>
      <trkpt lat="44.65682" lon="4.95188">
        <ele>403.38</ele>
        <time>2019-03-03T10:38:51Z</time>
      </trkpt>
      <trkpt lat="44.65675" lon="4.95162">
        <ele>401.87</ele>
        <time>2019-03-03T10:39:09Z</time>
      </trkpt>
      <trkpt lat="44.65665" lon="4.95132">
        <ele>400.39</ele>
        <time>2019-03-03T10:39:30Z</time>
      </trkpt>
      <trkpt lat="44.65664" lon="4.95131">
        <ele>400.2</ele>
        <time>2019-03-03T10:39:31Z</time>
      </trkpt>
      <trkpt lat="44.65664" lon="4.9513">
        <ele>399.88</ele>
        <time>2019-03-03T10:39:32Z</time>
      </trkpt>
      <trkpt lat="44.65645" lon="4.95104">
        <ele>398.01</ele>
        <time>2019-03-03T10:39:54Z</time>
      </trkpt>
      <trkpt lat="44.65625" lon="4.9507">
        <ele>396.99</ele>
        <time>2019-03-03T10:40:19Z</time>
      </trkpt>
      <trkpt lat="44.65616" lon="4.95031">
        <ele>397.37</ele>
        <time>2019-03-03T10:40:43Z</time>
      </trkpt>
      <trkpt lat="44.65604" lon="4.94997">
        <ele>396.51</ele>
        <time>2019-03-03T10:41:06Z</time>
      </trkpt>
      <trkpt lat="44.65594" lon="4.94959">
        <ele>396.49</ele>
        <time>2019-03-03T10:41:30Z</time>
      </trkpt>
      <trkpt lat="44.65589" lon="4.94928">
        <ele>396.42</ele>
        <time>2019-03-03T10:41:49Z</time>
      </trkpt>
      <trkpt lat="44.65582" lon="4.94905">
        <ele>396.65</ele>
        <time>2019-03-03T10:42:03Z</time>
      </trkpt>
      <trkpt lat="44.6558" lon="4.94897">
        <ele>396.2</ele>
        <time>2019-03-03T10:42:08Z</time>
      </trkpt>
      <trkpt lat="44.65572" lon="4.94857">
        <ele>395.9</ele>
        <time>2019-03-03T10:42:33Z</time>
      </trkpt>
      <trkpt lat="44.65564" lon="4.94835">
        <ele>396.51</ele>
        <time>2019-03-03T10:42:51Z</time>
      </trkpt>
      <trkpt lat="44.6555" lon="4.94802">
        <ele>394.76</ele>
        <time>2019-03-03T10:43:14Z</time>
      </trkpt>
      <trkpt lat="44.65541" lon="4.94778">
        <ele>391.99</ele>
        <time>2019-03-03T10:43:33Z</time>
      </trkpt>
      <trkpt lat="44.65532" lon="4.94758">
        <ele>390.35</ele>
        <time>2019-03-03T10:43:47Z</time>
      </trkpt>
      <trkpt lat="44.65528" lon="4.94736">
        <ele>389.1</ele>
        <time>2019-03-03T10:44:02Z</time>
      </trkpt>
      <trkpt lat="44.65528" lon="4.94734">
        <ele>389.03</ele>
        <time>2019-03-03T10:44:03Z</time>
      </trkpt>
      <trkpt lat="44.65528" lon="4.9473">
        <ele>388.93</ele>
        <time>2019-03-03T10:44:05Z</time>
      </trkpt>
      <trkpt lat="44.65521" lon="4.94706">
        <ele>386.12</ele>
        <time>2019-03-03T10:44:20Z</time>
      </trkpt>
      <trkpt lat="44.65502" lon="4.9468">
        <ele>383.3</ele>
        <time>2019-03-03T10:44:44Z</time>
      </trkpt>
      <trkpt lat="44.6548" lon="4.94649">
        <ele>380.55</ele>
        <time>2019-03-03T10:45:09Z</time>
      </trkpt>
      <trkpt lat="44.65468" lon="4.94631">
        <ele>377.52</ele>
        <time>2019-03-03T10:45:25Z</time>
      </trkpt>
      <trkpt lat="44.65453" lon="4.94609">
        <ele>375.29</ele>
        <time>2019-03-03T10:45:44Z</time>
      </trkpt>
      <trkpt lat="44.65433" lon="4.94583">
        <ele>373.72</ele>
        <time>2019-03-03T10:46:08Z</time>
      </trkpt>
      <trkpt lat="44.65414" lon="4.94559">
        <ele>372.62</ele>
        <time>2019-03-03T10:46:31Z</time>
      </trkpt>
      <trkpt lat="44.65403" lon="4.94549">
        <ele>371.61</ele>
        <time>2019-03-03T10:46:44Z</time>
      </trkpt>
      <trkpt lat="44.65391" lon="4.9453">
        <ele>370.04</ele>
        <time>2019-03-03T10:47:00Z</time>
      </trkpt>
      <trkpt lat="44.65382" lon="4.94517">
        <ele>368.32</ele>
        <time>2019-03-03T10:47:12Z</time>
      </trkpt>
      <trkpt lat="44.65368" lon="4.94497">
        <ele>367.01</ele>
        <time>2019-03-03T10:47:30Z</time>
      </trkpt>
      <trkpt lat="44.65359" lon="4.94475">
        <ele>365.62</ele>
        <time>2019-03-03T10:47:46Z</time>
      </trkpt>
      <trkpt lat="44.65347" lon="4.94452">
        <ele>363.88</ele>
        <time>2019-03-03T10:48:03Z</time>
      </trkpt>
      <trkpt lat="44.65329" lon="4.94431">
        <ele>362.54</ele>
        <time>2019-03-03T10:48:20Z</time>
      </trkpt>
      <trkpt lat="44.65313" lon="4.94414">
        <ele>361.17</ele>
        <time>2019-03-03T10:48:37Z</time>
      </trkpt>
      <trkpt lat="44.65294" lon="4.94391">
        <ele>359.41</ele>
        <time>2019-03-03T10:48:58Z</time>
      </trkpt>
      <trkpt lat="44.65279" lon="4.94372">
        <ele>356.99</ele>
        <time>2019-03-03T10:49:16Z</time>
      </trkpt>
      <trkpt lat="44.65262" lon="4.94356">
        <ele>355.21</ele>
        <time>2019-03-03T10:49:33Z</time>
      </trkpt>
      <trkpt lat="44.65259" lon="4.94354">
        <ele>354.99</ele>
        <time>2019-03-03T10:49:36Z</time>
      </trkpt>
      <trkpt lat="44.65248" lon="4.94354">
        <ele>354.04</ele>
        <time>2019-03-03T10:49:46Z</time>
      </trkpt>
      <trkpt lat="44.65229" lon="4.94348">
        <ele>352.45</ele>
        <time>2019-03-03T10:50:04Z</time>
      </trkpt>
      <trkpt lat="44.65205" lon="4.94343">
        <ele>351.14</ele>
        <time>2019-03-03T10:50:24Z</time>
      </trkpt>
      <trkpt lat="44.65186" lon="4.94341">
        <ele>350.06</ele>
        <time>2019-03-03T10:50:40Z</time>
      </trkpt>
      <trkpt lat="44.6517" lon="4.94333">
        <ele>347.89</ele>
        <time>2019-03-03T10:50:56Z</time>
      </trkpt>
      <trkpt lat="44.65156" lon="4.94321">
        <ele>346.54</ele>
        <time>2019-03-03T10:51:11Z</time>
      </trkpt>
      <trkpt lat="44.65143" lon="4.94312">
        <ele>344.76</ele>
        <time>2019-03-03T10:51:25Z</time>
      </trkpt>
      <trkpt lat="44.65142" lon="4.9431">
        <ele>344.77</ele>
        <time>2019-03-03T10:51:26Z</time>
      </trkpt>
      <trkpt lat="44.65127" lon="4.94294">
        <ele>341.58</ele>
        <time>2019-03-03T10:51:42Z</time>
      </trkpt>
      <trkpt lat="44.65116" lon="4.9428">
        <ele>338.36</ele>
        <time>2019-03-03T10:51:56Z</time>
      </trkpt>
      <trkpt lat="44.65109" lon="4.94265">
        <ele>335.97</ele>
        <time>2019-03-03T10:52:08Z</time>
      </trkpt>
      <trkpt lat="44.65107" lon="4.9426">
        <ele>335</ele>
        <time>2019-03-03T10:52:11Z</time>
      </trkpt>
      <trkpt lat="44.65097" lon="4.94242">
        <ele>331.59</ele>
        <time>2019-03-03T10:52:25Z</time>
      </trkpt>
      <trkpt lat="44.65088" lon="4.94229">
        <ele>328.4</ele>
        <time>2019-03-03T10:52:38Z</time>
      </trkpt>
      <trkpt lat="44.6508" lon="4.94221">
        <ele>325.29</ele>
        <time>2019-03-03T10:52:49Z</time>
      </trkpt>
      <trkpt lat="44.65079" lon="4.9422">
        <ele>325.58</ele>
        <time>2019-03-03T10:52:50Z</time>
      </trkpt>
      <trkpt lat="44.65077" lon="4.94215">
        <ele>323.93</ele>
        <time>2019-03-03T10:52:54Z</time>
      </trkpt>
      <trkpt lat="44.65065" lon="4.94202">
        <ele>320.02</ele>
        <time>2019-03-03T10:53:08Z</time>
      </trkpt>
      <trkpt lat="44.65063" lon="4.94191">
        <ele>317.76</ele>
        <time>2019-03-03T10:53:21Z</time>
      </trkpt>
      <trkpt lat="44.65065" lon="4.94185">
        <ele>317.28</ele>
        <time>2019-03-03T10:53:39Z</time>
      </trkpt>
      <trkpt lat="44.65065" lon="4.94187">
        <ele>318.7</ele>
        <time>2019-03-03T10:54:20Z</time>
      </trkpt>
      <trkpt lat="44.65067" lon="4.94197">
        <ele>320.96</ele>
        <time>2019-03-03T10:54:36Z</time>
      </trkpt>
      <trkpt lat="44.65058" lon="4.94194">
        <ele>321.5</ele>
        <time>2019-03-03T10:54:51Z</time>
      </trkpt>
      <trkpt lat="44.65056" lon="4.94194">
        <ele>321.66</ele>
        <time>2019-03-03T10:54:53Z</time>
      </trkpt>
      <trkpt lat="44.65047" lon="4.94189">
        <ele>321.77</ele>
        <time>2019-03-03T10:55:01Z</time>
      </trkpt>
      <trkpt lat="44.65043" lon="4.9419">
        <ele>322.04</ele>
        <time>2019-03-03T10:55:05Z</time>
      </trkpt>
      <trkpt lat="44.65029" lon="4.94203">
        <ele>319.76</ele>
        <time>2019-03-03T10:55:22Z</time>
      </trkpt>
      <trkpt lat="44.6502" lon="4.94216">
        <ele>318.48</ele>
        <time>2019-03-03T10:55:38Z</time>
      </trkpt>
      <trkpt lat="44.65012" lon="4.94227">
        <ele>315.43</ele>
        <time>2019-03-03T10:55:55Z</time>
      </trkpt>
      <trkpt lat="44.65003" lon="4.94242">
        <ele>312.32</ele>
        <time>2019-03-03T10:56:11Z</time>
      </trkpt>
      <trkpt lat="44.65001" lon="4.94244">
        <ele>311.99</ele>
        <time>2019-03-03T10:56:14Z</time>
      </trkpt>
      <trkpt lat="44.64989" lon="4.94254">
        <ele>309.19</ele>
        <time>2019-03-03T10:56:28Z</time>
      </trkpt>
      <trkpt lat="44.64977" lon="4.94263">
        <ele>306.14</ele>
        <time>2019-03-03T10:56:44Z</time>
      </trkpt>
      <trkpt lat="44.64968" lon="4.9427">
        <ele>303.01</ele>
        <time>2019-03-03T10:56:54Z</time>
      </trkpt>
      <trkpt lat="44.64962" lon="4.94275">
        <ele>301.61</ele>
        <time>2019-03-03T10:57:01Z</time>
      </trkpt>
      <trkpt lat="44.64959" lon="4.94279">
        <ele>300.33</ele>
        <time>2019-03-03T10:57:04Z</time>
      </trkpt>
      <trkpt lat="44.64946" lon="4.94297">
        <ele>296.99</ele>
        <time>2019-03-03T10:57:18Z</time>
      </trkpt>
      <trkpt lat="44.64942" lon="4.94303">
        <ele>295.56</ele>
        <time>2019-03-03T10:57:23Z</time>
      </trkpt>
      <trkpt lat="44.64929" lon="4.94321">
        <ele>292.36</ele>
        <time>2019-03-03T10:57:37Z</time>
      </trkpt>
      <trkpt lat="44.64914" lon="4.9433">
        <ele>289.86</ele>
        <time>2019-03-03T10:57:51Z</time>
      </trkpt>
      <trkpt lat="44.64907" lon="4.94323">
        <ele>291.81</ele>
        <time>2019-03-03T10:58:09Z</time>
      </trkpt>
      <trkpt lat="44.64896" lon="4.94313">
        <ele>294.92</ele>
        <time>2019-03-03T10:58:25Z</time>
      </trkpt>
      <trkpt lat="44.64882" lon="4.94306">
        <ele>297.53</ele>
        <time>2019-03-03T10:58:43Z</time>
      </trkpt>
      <trkpt lat="44.64871" lon="4.94299">
        <ele>297.75</ele>
        <time>2019-03-03T10:58:58Z</time>
      </trkpt>
      <trkpt lat="44.64859" lon="4.94285">
        <ele>299.42</ele>
        <time>2019-03-03T10:59:16Z</time>
      </trkpt>
      <trkpt lat="44.6486" lon="4.94269">
        <ele>302.63</ele>
        <time>2019-03-03T10:59:32Z</time>
      </trkpt>
      <trkpt lat="44.64856" lon="4.94252">
        <ele>305.38</ele>
        <time>2019-03-03T10:59:50Z</time>
      </trkpt>
      <trkpt lat="44.64852" lon="4.94239">
        <ele>308.39</ele>
        <time>2019-03-03T11:00:06Z</time>
      </trkpt>
      <trkpt lat="44.6485" lon="4.94224">
        <ele>309.91</ele>
        <time>2019-03-03T11:00:24Z</time>
      </trkpt>
      <trkpt lat="44.64852" lon="4.94207">
        <ele>312.12</ele>
        <time>2019-03-03T11:00:43Z</time>
      </trkpt>
      <trkpt lat="44.64854" lon="4.94192">
        <ele>315.46</ele>
        <time>2019-03-03T11:00:57Z</time>
      </trkpt>
      <trkpt lat="44.64853" lon="4.94176">
        <ele>318.55</ele>
        <time>2019-03-03T11:01:14Z</time>
      </trkpt>
      <trkpt lat="44.64853" lon="4.94161">
        <ele>320.64</ele>
        <time>2019-03-03T11:01:30Z</time>
      </trkpt>
      <trkpt lat="44.64858" lon="4.94144">
        <ele>323.39</ele>
        <time>2019-03-03T11:01:49Z</time>
      </trkpt>
      <trkpt lat="44.64866" lon="4.94141">
        <ele>325.79</ele>
        <time>2019-03-03T11:02:07Z</time>
      </trkpt>
      <trkpt lat="44.64871" lon="4.94131">
        <ele>327.88</ele>
        <time>2019-03-03T11:02:24Z</time>
      </trkpt>
      <trkpt lat="44.64864" lon="4.94119">
        <ele>328.28</ele>
        <time>2019-03-03T11:02:40Z</time>
      </trkpt>
      <trkpt lat="44.6486" lon="4.94104">
        <ele>329.75</ele>
        <time>2019-03-03T11:02:59Z</time>
      </trkpt>
      <trkpt lat="44.64849" lon="4.94099">
        <ele>331.01</ele>
        <time>2019-03-03T11:03:13Z</time>
      </trkpt>
      <trkpt lat="44.64837" lon="4.9409">
        <ele>331.63</ele>
        <time>2019-03-03T11:03:28Z</time>
      </trkpt>
      <trkpt lat="44.64829" lon="4.94083">
        <ele>330.67</ele>
        <time>2019-03-03T11:03:44Z</time>
      </trkpt>
      <trkpt lat="44.64828" lon="4.94081">
        <ele>330.29</ele>
        <time>2019-03-03T11:03:48Z</time>
      </trkpt>
      <trkpt lat="44.64828" lon="4.94078">
        <ele>330.19</ele>
        <time>2019-03-03T11:03:50Z</time>
      </trkpt>
      <trkpt lat="44.64826" lon="4.9406">
        <ele>331.04</ele>
        <time>2019-03-03T11:04:01Z</time>
      </trkpt>
      <trkpt lat="44.64825" lon="4.94059">
        <ele>331.32</ele>
        <time>2019-03-03T11:04:14Z</time>
      </trkpt>
      <trkpt lat="44.64826" lon="4.94062">
        <ele>331.27</ele>
        <time>2019-03-03T11:04:16Z</time>
      </trkpt>
      <trkpt lat="44.64829" lon="4.94084">
        <ele>330.96</ele>
        <time>2019-03-03T11:04:31Z</time>
      </trkpt>
      <trkpt lat="44.64837" lon="4.9409">
        <ele>332.26</ele>
        <time>2019-03-03T11:04:46Z</time>
      </trkpt>
      <trkpt lat="44.64834" lon="4.94089">
        <ele>331.21</ele>
        <time>2019-03-03T11:04:56Z</time>
      </trkpt>
      <trkpt lat="44.64829" lon="4.94085">
        <ele>330.85</ele>
        <time>2019-03-03T11:05:03Z</time>
      </trkpt>
      <trkpt lat="44.64828" lon="4.94077">
        <ele>330.47</ele>
        <time>2019-03-03T11:05:08Z</time>
      </trkpt>
      <trkpt lat="44.64825" lon="4.94054">
        <ele>331.39</ele>
        <time>2019-03-03T11:05:26Z</time>
      </trkpt>
      <trkpt lat="44.64828" lon="4.94046">
        <ele>331.39</ele>
        <time>2019-03-03T11:05:34Z</time>
      </trkpt>
      <trkpt lat="44.6483" lon="4.94034">
        <ele>330.34</ele>
        <time>2019-03-03T11:05:49Z</time>
      </trkpt>
      <trkpt lat="44.64828" lon="4.94032">
        <ele>329.9</ele>
        <time>2019-03-03T11:05:51Z</time>
      </trkpt>
      <trkpt lat="44.64824" lon="4.94031">
        <ele>329.67</ele>
        <time>2019-03-03T11:05:56Z</time>
      </trkpt>
      <trkpt lat="44.64816" lon="4.94028">
        <ele>329.74</ele>
        <time>2019-03-03T11:06:11Z</time>
      </trkpt>
      <trkpt lat="44.64818" lon="4.94032">
        <ele>329.07</ele>
        <time>2019-03-03T11:06:25Z</time>
      </trkpt>
      <trkpt lat="44.64818" lon="4.94031">
        <ele>330.44</ele>
        <time>2019-03-03T11:06:56Z</time>
      </trkpt>
      <trkpt lat="44.64817" lon="4.94033">
        <ele>329.86</ele>
        <time>2019-03-03T11:07:25Z</time>
      </trkpt>
      <trkpt lat="44.64819" lon="4.94027">
        <ele>329.87</ele>
        <time>2019-03-03T11:07:47Z</time>
      </trkpt>
      <trkpt lat="44.64818" lon="4.94024">
        <ele>329.92</ele>
        <time>2019-03-03T11:08:06Z</time>
      </trkpt>
      <trkpt lat="44.64819" lon="4.94023">
        <ele>330.99</ele>
        <time>2019-03-03T11:08:34Z</time>
      </trkpt>
      <trkpt lat="44.64819" lon="4.94027">
        <ele>331.33</ele>
        <time>2019-03-03T11:09:09Z</time>
      </trkpt>
      <trkpt lat="44.64818" lon="4.94033">
        <ele>331.07</ele>
        <time>2019-03-03T11:09:26Z</time>
      </trkpt>
      <trkpt lat="44.64818" lon="4.94035">
        <ele>331.34</ele>
        <time>2019-03-03T11:10:02Z</time>
      </trkpt>
      <trkpt lat="44.64817" lon="4.94027">
        <ele>331.6</ele>
        <time>2019-03-03T11:10:16Z</time>
      </trkpt>
      <trkpt lat="44.64816" lon="4.94026">
        <ele>331.32</ele>
        <time>2019-03-03T11:10:58Z</time>
      </trkpt>
      <trkpt lat="44.64817" lon="4.94029">
        <ele>330.95</ele>
        <time>2019-03-03T11:11:29Z</time>
      </trkpt>
      <trkpt lat="44.6482" lon="4.9403">
        <ele>330.97</ele>
        <time>2019-03-03T11:11:40Z</time>
      </trkpt>
      <trkpt lat="44.64826" lon="4.94029">
        <ele>331.23</ele>
        <time>2019-03-03T11:11:54Z</time>
      </trkpt>
      <trkpt lat="44.64825" lon="4.94033">
        <ele>331.46</ele>
        <time>2019-03-03T11:12:19Z</time>
      </trkpt>
      <trkpt lat="44.6483" lon="4.94034">
        <ele>332.66</ele>
        <time>2019-03-03T11:12:34Z</time>
      </trkpt>
      <trkpt lat="44.64831" lon="4.94036">
        <ele>333.03</ele>
        <time>2019-03-03T11:12:52Z</time>
      </trkpt>
      <trkpt lat="44.64833" lon="4.94035">
        <ele>333.33</ele>
        <time>2019-03-03T11:13:08Z</time>
      </trkpt>
      <trkpt lat="44.64834" lon="4.94031">
        <ele>332.8</ele>
        <time>2019-03-03T11:13:55Z</time>
      </trkpt>
      <trkpt lat="44.64837" lon="4.94017">
        <ele>332.51</ele>
        <time>2019-03-03T11:14:10Z</time>
      </trkpt>
      <trkpt lat="44.64842" lon="4.94013">
        <ele>332.85</ele>
        <time>2019-03-03T11:14:18Z</time>
      </trkpt>
      <trkpt lat="44.64845" lon="4.94014">
        <ele>332.97</ele>
        <time>2019-03-03T11:14:21Z</time>
      </trkpt>
      <trkpt lat="44.64848" lon="4.94015">
        <ele>333.2</ele>
        <time>2019-03-03T11:14:24Z</time>
      </trkpt>
      <trkpt lat="44.64854" lon="4.94019">
        <ele>333.97</ele>
        <time>2019-03-03T11:14:30Z</time>
      </trkpt>
      <trkpt lat="44.64863" lon="4.94028">
        <ele>331.16</ele>
        <time>2019-03-03T11:14:41Z</time>
      </trkpt>
      <trkpt lat="44.64872" lon="4.94048">
        <ele>329.25</ele>
        <time>2019-03-03T11:14:57Z</time>
      </trkpt>
      <trkpt lat="44.64876" lon="4.94062">
        <ele>329.86</ele>
        <time>2019-03-03T11:15:09Z</time>
      </trkpt>
      <trkpt lat="44.64878" lon="4.94068">
        <ele>330.25</ele>
        <time>2019-03-03T11:15:15Z</time>
      </trkpt>
      <trkpt lat="44.64881" lon="4.94069">
        <ele>329.85</ele>
        <time>2019-03-03T11:15:19Z</time>
      </trkpt>
      <trkpt lat="44.64887" lon="4.94068">
        <ele>328.49</ele>
        <time>2019-03-03T11:15:31Z</time>
      </trkpt>
      <trkpt lat="44.64886" lon="4.94047">
        <ele>326.12</ele>
        <time>2019-03-03T11:15:48Z</time>
      </trkpt>
      <trkpt lat="44.64886" lon="4.94045">
        <ele>325.71</ele>
        <time>2019-03-03T11:15:50Z</time>
      </trkpt>
      <trkpt lat="44.64896" lon="4.94032">
        <ele>323.18</ele>
        <time>2019-03-03T11:16:05Z</time>
      </trkpt>
      <trkpt lat="44.64903" lon="4.94027">
        <ele>320.16</ele>
        <time>2019-03-03T11:16:16Z</time>
      </trkpt>
      <trkpt lat="44.64905" lon="4.94018">
        <ele>317.95</ele>
        <time>2019-03-03T11:16:24Z</time>
      </trkpt>
      <trkpt lat="44.6491" lon="4.9401">
        <ele>315.94</ele>
        <time>2019-03-03T11:16:33Z</time>
      </trkpt>
      <trkpt lat="44.64913" lon="4.94003">
        <ele>314.33</ele>
        <time>2019-03-03T11:16:39Z</time>
      </trkpt>
      <trkpt lat="44.64916" lon="4.93995">
        <ele>313.28</ele>
        <time>2019-03-03T11:16:55Z</time>
      </trkpt>
      <trkpt lat="44.64916" lon="4.93971">
        <ele>310.53</ele>
        <time>2019-03-03T11:17:10Z</time>
      </trkpt>
      <trkpt lat="44.64915" lon="4.93964">
        <ele>309.2</ele>
        <time>2019-03-03T11:17:16Z</time>
      </trkpt>
      <trkpt lat="44.64908" lon="4.93941">
        <ele>306.12</ele>
        <time>2019-03-03T11:17:33Z</time>
      </trkpt>
      <trkpt lat="44.64908" lon="4.9394">
        <ele>306.52</ele>
        <time>2019-03-03T11:17:34Z</time>
      </trkpt>
      <trkpt lat="44.64906" lon="4.93936">
        <ele>306.34</ele>
        <time>2019-03-03T11:17:37Z</time>
      </trkpt>
      <trkpt lat="44.64903" lon="4.9392">
        <ele>304.17</ele>
        <time>2019-03-03T11:17:48Z</time>
      </trkpt>
      <trkpt lat="44.64895" lon="4.93902">
        <ele>301.04</ele>
        <time>2019-03-03T11:18:06Z</time>
      </trkpt>
      <trkpt lat="44.64894" lon="4.93892">
        <ele>298.98</ele>
        <time>2019-03-03T11:18:19Z</time>
      </trkpt>
      <trkpt lat="44.64901" lon="4.93895">
        <ele>297.63</ele>
        <time>2019-03-03T11:18:30Z</time>
      </trkpt>
      <trkpt lat="44.64913" lon="4.93905">
        <ele>295.61</ele>
        <time>2019-03-03T11:18:47Z</time>
      </trkpt>
      <trkpt lat="44.6492" lon="4.9391">
        <ele>294.3</ele>
        <time>2019-03-03T11:18:59Z</time>
      </trkpt>
      <trkpt lat="44.64922" lon="4.93893">
        <ele>293.02</ele>
        <time>2019-03-03T11:19:14Z</time>
      </trkpt>
      <trkpt lat="44.64915" lon="4.93879">
        <ele>290.09</ele>
        <time>2019-03-03T11:19:28Z</time>
      </trkpt>
      <trkpt lat="44.6491" lon="4.9387">
        <ele>288.63</ele>
        <time>2019-03-03T11:19:37Z</time>
      </trkpt>
      <trkpt lat="44.64907" lon="4.93866">
        <ele>288.23</ele>
        <time>2019-03-03T11:19:41Z</time>
      </trkpt>
      <trkpt lat="44.64905" lon="4.93862">
        <ele>287.35</ele>
        <time>2019-03-03T11:19:44Z</time>
      </trkpt>
      <trkpt lat="44.64893" lon="4.93854">
        <ele>284.1</ele>
        <time>2019-03-03T11:20:02Z</time>
      </trkpt>
      <trkpt lat="44.64883" lon="4.93847">
        <ele>281.68</ele>
        <time>2019-03-03T11:20:20Z</time>
      </trkpt>
      <trkpt lat="44.64881" lon="4.93843">
        <ele>280.3</ele>
        <time>2019-03-03T11:20:26Z</time>
      </trkpt>
      <trkpt lat="44.64869" lon="4.93844">
        <ele>278.01</ele>
        <time>2019-03-03T11:20:42Z</time>
      </trkpt>
      <trkpt lat="44.64854" lon="4.93847">
        <ele>277.28</ele>
        <time>2019-03-03T11:21:02Z</time>
      </trkpt>
      <trkpt lat="44.64845" lon="4.93843">
        <ele>275.56</ele>
        <time>2019-03-03T11:21:22Z</time>
      </trkpt>
      <trkpt lat="44.64845" lon="4.93835">
        <ele>273.12</ele>
        <time>2019-03-03T11:21:43Z</time>
      </trkpt>
      <trkpt lat="44.64841" lon="4.93831">
        <ele>270.12</ele>
        <time>2019-03-03T11:21:58Z</time>
      </trkpt>
      <trkpt lat="44.6484" lon="4.93817">
        <ele>267.06</ele>
        <time>2019-03-03T11:22:15Z</time>
      </trkpt>
      <trkpt lat="44.6485" lon="4.9381">
        <ele>265.96</ele>
        <time>2019-03-03T11:22:31Z</time>
      </trkpt>
      <trkpt lat="44.64848" lon="4.93814">
        <ele>263.81</ele>
        <time>2019-03-03T11:22:52Z</time>
      </trkpt>
      <trkpt lat="44.64847" lon="4.93815">
        <ele>263.4</ele>
        <time>2019-03-03T11:22:53Z</time>
      </trkpt>
      <trkpt lat="44.64845" lon="4.93815">
        <ele>263.12</ele>
        <time>2019-03-03T11:22:55Z</time>
      </trkpt>
      <trkpt lat="44.64836" lon="4.93816">
        <ele>263.32</ele>
        <time>2019-03-03T11:23:03Z</time>
      </trkpt>
      <trkpt lat="44.64831" lon="4.93813">
        <ele>261.54</ele>
        <time>2019-03-03T11:23:06Z</time>
      </trkpt>
      <trkpt lat="44.64821" lon="4.93812">
        <ele>260.57</ele>
        <time>2019-03-03T11:23:16Z</time>
      </trkpt>
      <trkpt lat="44.64818" lon="4.93815">
        <ele>260.48</ele>
        <time>2019-03-03T11:23:20Z</time>
      </trkpt>
      <trkpt lat="44.64814" lon="4.93818">
        <ele>261.13</ele>
        <time>2019-03-03T11:23:23Z</time>
      </trkpt>
      <trkpt lat="44.64798" lon="4.9383">
        <ele>261.21</ele>
        <time>2019-03-03T11:23:40Z</time>
      </trkpt>
      <trkpt lat="44.64794" lon="4.9383">
        <ele>259.18</ele>
        <time>2019-03-03T11:23:46Z</time>
      </trkpt>
      <trkpt lat="44.64791" lon="4.9383">
        <ele>258.48</ele>
        <time>2019-03-03T11:23:48Z</time>
      </trkpt>
      <trkpt lat="44.64783" lon="4.93834">
        <ele>258.25</ele>
        <time>2019-03-03T11:23:55Z</time>
      </trkpt>
      <trkpt lat="44.64769" lon="4.9385">
        <ele>257.77</ele>
        <time>2019-03-03T11:24:11Z</time>
      </trkpt>
      <trkpt lat="44.64768" lon="4.93851">
        <ele>258.04</ele>
        <time>2019-03-03T11:24:12Z</time>
      </trkpt>
      <trkpt lat="44.64754" lon="4.93857">
        <ele>255.48</ele>
        <time>2019-03-03T11:24:26Z</time>
      </trkpt>
      <trkpt lat="44.64752" lon="4.93842">
        <ele>252.77</ele>
        <time>2019-03-03T11:24:40Z</time>
      </trkpt>
      <trkpt lat="44.64752" lon="4.93841">
        <ele>252.02</ele>
        <time>2019-03-03T11:24:42Z</time>
      </trkpt>
      <trkpt lat="44.64748" lon="4.93836">
        <ele>249.97</ele>
        <time>2019-03-03T11:24:55Z</time>
      </trkpt>
      <trkpt lat="44.64746" lon="4.93836">
        <ele>249.96</ele>
        <time>2019-03-03T11:24:58Z</time>
      </trkpt>
      <trkpt lat="44.64732" lon="4.93857">
        <ele>247.83</ele>
        <time>2019-03-03T11:25:17Z</time>
      </trkpt>
      <trkpt lat="44.64731" lon="4.93859">
        <ele>248.3</ele>
        <time>2019-03-03T11:25:19Z</time>
      </trkpt>
      <trkpt lat="44.6472" lon="4.93868">
        <ele>245.06</ele>
        <time>2019-03-03T11:25:33Z</time>
      </trkpt>
      <trkpt lat="44.64705" lon="4.93873">
        <ele>241.2</ele>
        <time>2019-03-03T11:25:48Z</time>
      </trkpt>
      <trkpt lat="44.64704" lon="4.93872">
        <ele>241.31</ele>
        <time>2019-03-03T11:25:49Z</time>
      </trkpt>
      <trkpt lat="44.64694" lon="4.93866">
        <ele>238.14</ele>
        <time>2019-03-03T11:25:59Z</time>
      </trkpt>
      <trkpt lat="44.64686" lon="4.9387">
        <ele>235.42</ele>
        <time>2019-03-03T11:26:08Z</time>
      </trkpt>
      <trkpt lat="44.64683" lon="4.93872">
        <ele>234.82</ele>
        <time>2019-03-03T11:26:12Z</time>
      </trkpt>
      <trkpt lat="44.64671" lon="4.93882">
        <ele>231.75</ele>
        <time>2019-03-03T11:26:27Z</time>
      </trkpt>
      <trkpt lat="44.64657" lon="4.93884">
        <ele>228.48</ele>
        <time>2019-03-03T11:26:42Z</time>
      </trkpt>
      <trkpt lat="44.64652" lon="4.93884">
        <ele>227.44</ele>
        <time>2019-03-03T11:26:48Z</time>
      </trkpt>
      <trkpt lat="44.64643" lon="4.93886">
        <ele>224.23</ele>
        <time>2019-03-03T11:26:58Z</time>
      </trkpt>
      <trkpt lat="44.64639" lon="4.93889">
        <ele>223.39</ele>
        <time>2019-03-03T11:27:03Z</time>
      </trkpt>
      <trkpt lat="44.6463" lon="4.93908">
        <ele>223.25</ele>
        <time>2019-03-03T11:27:19Z</time>
      </trkpt>
      <trkpt lat="44.64618" lon="4.93938">
        <ele>221.76</ele>
        <time>2019-03-03T11:27:40Z</time>
      </trkpt>
      <trkpt lat="44.64606" lon="4.93966">
        <ele>221.29</ele>
        <time>2019-03-03T11:28:00Z</time>
      </trkpt>
      <trkpt lat="44.64597" lon="4.93978">
        <ele>220.67</ele>
        <time>2019-03-03T11:28:11Z</time>
      </trkpt>
      <trkpt lat="44.64581" lon="4.93975">
        <ele>218.18</ele>
        <time>2019-03-03T11:28:28Z</time>
      </trkpt>
      <trkpt lat="44.6458" lon="4.93974">
        <ele>218.19</ele>
        <time>2019-03-03T11:28:29Z</time>
      </trkpt>
      <trkpt lat="44.64559" lon="4.93972">
        <ele>214.01</ele>
        <time>2019-03-03T11:28:48Z</time>
      </trkpt>
      <trkpt lat="44.64552" lon="4.93974">
        <ele>213.77</ele>
        <time>2019-03-03T11:28:56Z</time>
      </trkpt>
      <trkpt lat="44.64547" lon="4.94003">
        <ele>214.75</ele>
        <time>2019-03-03T11:29:16Z</time>
      </trkpt>
      <trkpt lat="44.64542" lon="4.94036">
        <ele>216.6</ele>
        <time>2019-03-03T11:29:37Z</time>
      </trkpt>
      <trkpt lat="44.64538" lon="4.94072">
        <ele>218.18</ele>
        <time>2019-03-03T11:30:00Z</time>
      </trkpt>
      <trkpt lat="44.64533" lon="4.94109">
        <ele>220.57</ele>
        <time>2019-03-03T11:30:22Z</time>
      </trkpt>
      <trkpt lat="44.64528" lon="4.9414">
        <ele>222.01</ele>
        <time>2019-03-03T11:30:41Z</time>
      </trkpt>
      <trkpt lat="44.64526" lon="4.94172">
        <ele>223.73</ele>
        <time>2019-03-03T11:31:01Z</time>
      </trkpt>
      <trkpt lat="44.64528" lon="4.94201">
        <ele>225.61</ele>
        <time>2019-03-03T11:31:19Z</time>
      </trkpt>
      <trkpt lat="44.64529" lon="4.94202">
        <ele>225.57</ele>
        <time>2019-03-03T11:31:20Z</time>
      </trkpt>
      <trkpt lat="44.64536" lon="4.94228">
        <ele>227.48</ele>
        <time>2019-03-03T11:31:37Z</time>
      </trkpt>
      <trkpt lat="44.6454" lon="4.94251">
        <ele>228.43</ele>
        <time>2019-03-03T11:31:52Z</time>
      </trkpt>
      <trkpt lat="44.64541" lon="4.94261">
        <ele>229.43</ele>
        <time>2019-03-03T11:32:09Z</time>
      </trkpt>
      <trkpt lat="44.64546" lon="4.94292">
        <ele>232.2</ele>
        <time>2019-03-03T11:32:30Z</time>
      </trkpt>
      <trkpt lat="44.64555" lon="4.94313">
        <ele>233.36</ele>
        <time>2019-03-03T11:32:44Z</time>
      </trkpt>
      <trkpt lat="44.64568" lon="4.94331">
        <ele>234.31</ele>
        <time>2019-03-03T11:32:59Z</time>
      </trkpt>
      <trkpt lat="44.64583" lon="4.94357">
        <ele>236.06</ele>
        <time>2019-03-03T11:33:17Z</time>
      </trkpt>
      <trkpt lat="44.64588" lon="4.94362">
        <ele>236.52</ele>
        <time>2019-03-03T11:33:21Z</time>
      </trkpt>
      <trkpt lat="44.64601" lon="4.94387">
        <ele>237.55</ele>
        <time>2019-03-03T11:33:39Z</time>
      </trkpt>
      <trkpt lat="44.64607" lon="4.9441">
        <ele>236.7</ele>
        <time>2019-03-03T11:33:56Z</time>
      </trkpt>
      <trkpt lat="44.64614" lon="4.94449">
        <ele>234.38</ele>
        <time>2019-03-03T11:34:19Z</time>
      </trkpt>
      <trkpt lat="44.64626" lon="4.94466">
        <ele>233.28</ele>
        <time>2019-03-03T11:34:35Z</time>
      </trkpt>
      <trkpt lat="44.64645" lon="4.94491">
        <ele>231.47</ele>
        <time>2019-03-03T11:34:56Z</time>
      </trkpt>
      <trkpt lat="44.64654" lon="4.94508">
        <ele>231.54</ele>
        <time>2019-03-03T11:35:10Z</time>
      </trkpt>
      <trkpt lat="44.64652" lon="4.94535">
        <ele>231.51</ele>
        <time>2019-03-03T11:35:26Z</time>
      </trkpt>
      <trkpt lat="44.64638" lon="4.94561">
        <ele>232.6</ele>
        <time>2019-03-03T11:35:46Z</time>
      </trkpt>
      <trkpt lat="44.64636" lon="4.94564">
        <ele>232.26</ele>
        <time>2019-03-03T11:35:49Z</time>
      </trkpt>
      <trkpt lat="44.64626" lon="4.94577">
        <ele>233.49</ele>
        <time>2019-03-03T11:36:00Z</time>
      </trkpt>
      <trkpt lat="44.64612" lon="4.94606">
        <ele>235.34</ele>
        <time>2019-03-03T11:36:21Z</time>
      </trkpt>
      <trkpt lat="44.64599" lon="4.94634">
        <ele>236.86</ele>
        <time>2019-03-03T11:36:40Z</time>
      </trkpt>
      <trkpt lat="44.64596" lon="4.94661">
        <ele>236.15</ele>
        <time>2019-03-03T11:36:57Z</time>
      </trkpt>
      <trkpt lat="44.64592" lon="4.94691">
        <ele>235.98</ele>
        <time>2019-03-03T11:37:15Z</time>
      </trkpt>
      <trkpt lat="44.64584" lon="4.94722">
        <ele>235.88</ele>
        <time>2019-03-03T11:37:34Z</time>
      </trkpt>
      <trkpt lat="44.64575" lon="4.94752">
        <ele>236.22</ele>
        <time>2019-03-03T11:37:54Z</time>
      </trkpt>
      <trkpt lat="44.64567" lon="4.94774">
        <ele>237.28</ele>
        <time>2019-03-03T11:38:08Z</time>
      </trkpt>
      <trkpt lat="44.64558" lon="4.94803">
        <ele>237.44</ele>
        <time>2019-03-03T11:38:28Z</time>
      </trkpt>
      <trkpt lat="44.6455" lon="4.9483">
        <ele>238.91</ele>
        <time>2019-03-03T11:38:46Z</time>
      </trkpt>
      <trkpt lat="44.64545" lon="4.94851">
        <ele>239.56</ele>
        <time>2019-03-03T11:39:00Z</time>
      </trkpt>
      <trkpt lat="44.64543" lon="4.94878">
        <ele>241.07</ele>
        <time>2019-03-03T11:39:18Z</time>
      </trkpt>
      <trkpt lat="44.64534" lon="4.9491">
        <ele>242.77</ele>
        <time>2019-03-03T11:39:39Z</time>
      </trkpt>
      <trkpt lat="44.64527" lon="4.94939">
        <ele>245.15</ele>
        <time>2019-03-03T11:39:59Z</time>
      </trkpt>
      <trkpt lat="44.64522" lon="4.9497">
        <ele>247.77</ele>
        <time>2019-03-03T11:40:20Z</time>
      </trkpt>
      <trkpt lat="44.64521" lon="4.95002">
        <ele>248.93</ele>
        <time>2019-03-03T11:40:39Z</time>
      </trkpt>
      <trkpt lat="44.64517" lon="4.95031">
        <ele>249.93</ele>
        <time>2019-03-03T11:40:57Z</time>
      </trkpt>
      <trkpt lat="44.64515" lon="4.95053">
        <ele>250.9</ele>
        <time>2019-03-03T11:41:12Z</time>
      </trkpt>
      <trkpt lat="44.64514" lon="4.9506">
        <ele>250.47</ele>
        <time>2019-03-03T11:41:16Z</time>
      </trkpt>
      <trkpt lat="44.6451" lon="4.95094">
        <ele>251.81</ele>
        <time>2019-03-03T11:41:37Z</time>
      </trkpt>
      <trkpt lat="44.64507" lon="4.95127">
        <ele>253.1</ele>
        <time>2019-03-03T11:41:58Z</time>
      </trkpt>
      <trkpt lat="44.64507" lon="4.95139">
        <ele>253.93</ele>
        <time>2019-03-03T11:42:14Z</time>
      </trkpt>
      <trkpt lat="44.64504" lon="4.95137">
        <ele>252.8</ele>
        <time>2019-03-03T11:42:39Z</time>
      </trkpt>
      <trkpt lat="44.64501" lon="4.95137">
        <ele>252.78</ele>
        <time>2019-03-03T11:43:18Z</time>
      </trkpt>
      <trkpt lat="44.64501" lon="4.95136">
        <ele>252.4</ele>
        <time>2019-03-03T11:43:32Z</time>
      </trkpt>
      <trkpt lat="44.64501" lon="4.95136">
        <ele>252.64</ele>
        <time>2019-03-03T11:44:11Z</time>
      </trkpt>
      <trkpt lat="44.64501" lon="4.95136">
        <ele>252.59</ele>
        <time>2019-03-03T11:44:47Z</time>
      </trkpt>
      <trkpt lat="44.64504" lon="4.95138">
        <ele>253.23</ele>
        <time>2019-03-03T11:45:53Z</time>
      </trkpt>
      <trkpt lat="44.64507" lon="4.95138">
        <ele>252.81</ele>
        <time>2019-03-03T11:46:47Z</time>
      </trkpt>
      <trkpt lat="44.64506" lon="4.95138">
        <ele>253.16</ele>
        <time>2019-03-03T11:47:46Z</time>
      </trkpt>
      <trkpt lat="44.64505" lon="4.95135">
        <ele>253.42</ele>
        <time>2019-03-03T11:48:35Z</time>
      </trkpt>
      <trkpt lat="44.64505" lon="4.95134">
        <ele>253.56</ele>
        <time>2019-03-03T11:49:25Z</time>
      </trkpt>
      <trkpt lat="44.64506" lon="4.95137">
        <ele>253.58</ele>
        <time>2019-03-03T11:50:29Z</time>
      </trkpt>
      <trkpt lat="44.64505" lon="4.95137">
        <ele>253.44</ele>
        <time>2019-03-03T11:51:41Z</time>
      </trkpt>
      <trkpt lat="44.64505" lon="4.95136">
        <ele>253.28</ele>
        <time>2019-03-03T11:52:43Z</time>
      </trkpt>
      <trkpt lat="44.64505" lon="4.95136">
        <ele>252.75</ele>
        <time>2019-03-03T11:53:43Z</time>
      </trkpt>
      <trkpt lat="44.64504" lon="4.95137">
        <ele>253</ele>
        <time>2019-03-03T11:54:49Z</time>
      </trkpt>
      <trkpt lat="44.64502" lon="4.95138">
        <ele>253.2</ele>
        <time>2019-03-03T11:55:42Z</time>
      </trkpt>
      <trkpt lat="44.64506" lon="4.95138">
        <ele>253.09</ele>
        <time>2019-03-03T11:56:42Z</time>
      </trkpt>
      <trkpt lat="44.64506" lon="4.95137">
        <ele>253.99</ele>
        <time>2019-03-03T11:57:44Z</time>
      </trkpt>
      <trkpt lat="44.64505" lon="4.95138">
        <ele>254</ele>
        <time>2019-03-03T11:59:06Z</time>
      </trkpt>
      <trkpt lat="44.64506" lon="4.95139">
        <ele>254.22</ele>
        <time>2019-03-03T12:00:33Z</time>
      </trkpt>
      <trkpt lat="44.64506" lon="4.95138">
        <ele>254.77</ele>
        <time>2019-03-03T12:01:15Z</time>
      </trkpt>
      <trkpt lat="44.64506" lon="4.95138">
        <ele>255.81</ele>
        <time>2019-03-03T12:01:52Z</time>
      </trkpt>
      <trkpt lat="44.64506" lon="4.95138">
        <ele>256.59</ele>
        <time>2019-03-03T12:02:11Z</time>
      </trkpt>
      <trkpt lat="44.64505" lon="4.9514">
        <ele>257.2</ele>
        <time>2019-03-03T12:02:31Z</time>
      </trkpt>
      <trkpt lat="44.64506" lon="4.95141">
        <ele>256.66</ele>
        <time>2019-03-03T12:02:32Z</time>
      </trkpt>
      <trkpt lat="44.64507" lon="4.95157">
        <ele>257.67</ele>
        <time>2019-03-03T12:02:44Z</time>
      </trkpt>
      <trkpt lat="44.64508" lon="4.95167">
        <ele>258.27</ele>
        <time>2019-03-03T12:02:51Z</time>
      </trkpt>
      <trkpt lat="44.64508" lon="4.95172">
        <ele>258.28</ele>
        <time>2019-03-03T12:02:54Z</time>
      </trkpt>
      <trkpt lat="44.64506" lon="4.95198">
        <ele>260.09</ele>
        <time>2019-03-03T12:03:12Z</time>
      </trkpt>
      <trkpt lat="44.6449" lon="4.95224">
        <ele>257.89</ele>
        <time>2019-03-03T12:03:35Z</time>
      </trkpt>
      <trkpt lat="44.64468" lon="4.95232">
        <ele>256.57</ele>
        <time>2019-03-03T12:03:56Z</time>
      </trkpt>
      <trkpt lat="44.64465" lon="4.95232">
        <ele>255.24</ele>
        <time>2019-03-03T12:03:59Z</time>
      </trkpt>
      <trkpt lat="44.64444" lon="4.95229">
        <ele>253.54</ele>
        <time>2019-03-03T12:04:18Z</time>
      </trkpt>
      <trkpt lat="44.64417" lon="4.9523">
        <ele>251.23</ele>
        <time>2019-03-03T12:04:41Z</time>
      </trkpt>
      <trkpt lat="44.644" lon="4.95235">
        <ele>248.12</ele>
        <time>2019-03-03T12:04:56Z</time>
      </trkpt>
      <trkpt lat="44.6438" lon="4.95241">
        <ele>245</ele>
        <time>2019-03-03T12:05:14Z</time>
      </trkpt>
      <trkpt lat="44.64356" lon="4.95242">
        <ele>242.2</ele>
        <time>2019-03-03T12:05:35Z</time>
      </trkpt>
      <trkpt lat="44.64349" lon="4.95241">
        <ele>240.24</ele>
        <time>2019-03-03T12:05:41Z</time>
      </trkpt>
      <trkpt lat="44.64325" lon="4.95239">
        <ele>238.26</ele>
        <time>2019-03-03T12:06:02Z</time>
      </trkpt>
      <trkpt lat="44.64295" lon="4.95237">
        <ele>235.52</ele>
        <time>2019-03-03T12:06:27Z</time>
      </trkpt>
      <trkpt lat="44.64271" lon="4.95228">
        <ele>233.62</ele>
        <time>2019-03-03T12:06:48Z</time>
      </trkpt>
      <trkpt lat="44.64244" lon="4.9522">
        <ele>231</ele>
        <time>2019-03-03T12:07:11Z</time>
      </trkpt>
      <trkpt lat="44.64233" lon="4.95242">
        <ele>229.82</ele>
        <time>2019-03-03T12:07:29Z</time>
      </trkpt>
      <trkpt lat="44.64227" lon="4.95268">
        <ele>227.37</ele>
        <time>2019-03-03T12:07:45Z</time>
      </trkpt>
      <trkpt lat="44.64224" lon="4.95299">
        <ele>224.79</ele>
        <time>2019-03-03T12:08:03Z</time>
      </trkpt>
      <trkpt lat="44.64226" lon="4.9533">
        <ele>223.45</ele>
        <time>2019-03-03T12:08:22Z</time>
      </trkpt>
      <trkpt lat="44.6423" lon="4.95381">
        <ele>223.05</ele>
        <time>2019-03-03T12:08:49Z</time>
      </trkpt>
      <trkpt lat="44.64236" lon="4.95423">
        <ele>222.62</ele>
        <time>2019-03-03T12:09:15Z</time>
      </trkpt>
      <trkpt lat="44.6425" lon="4.95454">
        <ele>223.04</ele>
        <time>2019-03-03T12:09:38Z</time>
      </trkpt>
      <trkpt lat="44.64253" lon="4.95461">
        <ele>222.8</ele>
        <time>2019-03-03T12:09:44Z</time>
      </trkpt>
      <trkpt lat="44.64258" lon="4.95493">
        <ele>222.21</ele>
        <time>2019-03-03T12:10:03Z</time>
      </trkpt>
      <trkpt lat="44.64256" lon="4.95526">
        <ele>222.03</ele>
        <time>2019-03-03T12:10:23Z</time>
      </trkpt>
      <trkpt lat="44.64256" lon="4.95555">
        <ele>222.74</ele>
        <time>2019-03-03T12:10:40Z</time>
      </trkpt>
      <trkpt lat="44.64256" lon="4.95583">
        <ele>223.96</ele>
        <time>2019-03-03T12:10:57Z</time>
      </trkpt>
      <trkpt lat="44.64251" lon="4.95586">
        <ele>223.94</ele>
        <time>2019-03-03T12:11:01Z</time>
      </trkpt>
      <trkpt lat="44.6424" lon="4.95576">
        <ele>225.32</ele>
        <time>2019-03-03T12:11:14Z</time>
      </trkpt>
      <trkpt lat="44.64226" lon="4.95565">
        <ele>227.91</ele>
        <time>2019-03-03T12:11:32Z</time>
      </trkpt>
      <trkpt lat="44.64213" lon="4.95554">
        <ele>230.96</ele>
        <time>2019-03-03T12:11:47Z</time>
      </trkpt>
      <trkpt lat="44.64206" lon="4.95549">
        <ele>231.22</ele>
        <time>2019-03-03T12:11:54Z</time>
      </trkpt>
      <trkpt lat="44.64187" lon="4.9554">
        <ele>233.48</ele>
        <time>2019-03-03T12:12:13Z</time>
      </trkpt>
      <trkpt lat="44.64161" lon="4.9554">
        <ele>235.37</ele>
        <time>2019-03-03T12:12:37Z</time>
      </trkpt>
      <trkpt lat="44.64142" lon="4.95551">
        <ele>238.08</ele>
        <time>2019-03-03T12:12:58Z</time>
      </trkpt>
      <trkpt lat="44.64128" lon="4.95563">
        <ele>240.54</ele>
        <time>2019-03-03T12:13:16Z</time>
      </trkpt>
      <trkpt lat="44.64123" lon="4.95569">
        <ele>241.32</ele>
        <time>2019-03-03T12:13:23Z</time>
      </trkpt>
      <trkpt lat="44.64123" lon="4.95581">
        <ele>241.75</ele>
        <time>2019-03-03T12:13:38Z</time>
      </trkpt>
      <trkpt lat="44.64125" lon="4.95581">
        <ele>242.21</ele>
        <time>2019-03-03T12:13:56Z</time>
      </trkpt>
      <trkpt lat="44.64125" lon="4.9558">
        <ele>242.58</ele>
        <time>2019-03-03T12:14:29Z</time>
      </trkpt>
      <trkpt lat="44.64125" lon="4.95581">
        <ele>242.28</ele>
        <time>2019-03-03T12:14:37Z</time>
      </trkpt>
      <trkpt lat="44.64135" lon="4.95604">
        <ele>243.71</ele>
        <time>2019-03-03T12:14:55Z</time>
      </trkpt>
      <trkpt lat="44.64143" lon="4.95623">
        <ele>245.11</ele>
        <time>2019-03-03T12:15:10Z</time>
      </trkpt>
      <trkpt lat="44.64148" lon="4.95638">
        <ele>246.97</ele>
        <time>2019-03-03T12:15:23Z</time>
      </trkpt>
      <trkpt lat="44.64151" lon="4.95653">
        <ele>250.44</ele>
        <time>2019-03-03T12:15:36Z</time>
      </trkpt>
      <trkpt lat="44.64153" lon="4.95668">
        <ele>252.08</ele>
        <time>2019-03-03T12:15:47Z</time>
      </trkpt>
      <trkpt lat="44.64155" lon="4.95691">
        <ele>254.73</ele>
        <time>2019-03-03T12:16:05Z</time>
      </trkpt>
      <trkpt lat="44.64155" lon="4.95717">
        <ele>256.88</ele>
        <time>2019-03-03T12:16:26Z</time>
      </trkpt>
      <trkpt lat="44.64145" lon="4.95738">
        <ele>258.71</ele>
        <time>2019-03-03T12:16:45Z</time>
      </trkpt>
      <trkpt lat="44.64144" lon="4.95741">
        <ele>259.96</ele>
        <time>2019-03-03T12:16:48Z</time>
      </trkpt>
      <trkpt lat="44.64134" lon="4.95761">
        <ele>262.37</ele>
        <time>2019-03-03T12:17:09Z</time>
      </trkpt>
      <trkpt lat="44.64131" lon="4.95767">
        <ele>263.51</ele>
        <time>2019-03-03T12:17:15Z</time>
      </trkpt>
      <trkpt lat="44.64115" lon="4.95779">
        <ele>267.12</ele>
        <time>2019-03-03T12:17:34Z</time>
      </trkpt>
      <trkpt lat="44.64099" lon="4.95786">
        <ele>270.18</ele>
        <time>2019-03-03T12:17:53Z</time>
      </trkpt>
      <trkpt lat="44.6409" lon="4.95795">
        <ele>272.84</ele>
        <time>2019-03-03T12:18:08Z</time>
      </trkpt>
      <trkpt lat="44.64089" lon="4.95812">
        <ele>274.53</ele>
        <time>2019-03-03T12:18:24Z</time>
      </trkpt>
      <trkpt lat="44.64086" lon="4.95831">
        <ele>275.83</ele>
        <time>2019-03-03T12:18:41Z</time>
      </trkpt>
      <trkpt lat="44.64082" lon="4.95844">
        <ele>278.26</ele>
        <time>2019-03-03T12:18:55Z</time>
      </trkpt>
      <trkpt lat="44.64073" lon="4.95852">
        <ele>281.67</ele>
        <time>2019-03-03T12:19:10Z</time>
      </trkpt>
      <trkpt lat="44.64065" lon="4.95867">
        <ele>284.63</ele>
        <time>2019-03-03T12:19:29Z</time>
      </trkpt>
      <trkpt lat="44.64059" lon="4.95887">
        <ele>286.18</ele>
        <time>2019-03-03T12:19:46Z</time>
      </trkpt>
      <trkpt lat="44.64054" lon="4.95903">
        <ele>288.58</ele>
        <time>2019-03-03T12:20:05Z</time>
      </trkpt>
      <trkpt lat="44.64052" lon="4.95923">
        <ele>291.8</ele>
        <time>2019-03-03T12:20:23Z</time>
      </trkpt>
      <trkpt lat="44.64048" lon="4.95938">
        <ele>295.35</ele>
        <time>2019-03-03T12:20:39Z</time>
      </trkpt>
      <trkpt lat="44.64048" lon="4.95957">
        <ele>297.9</ele>
        <time>2019-03-03T12:20:58Z</time>
      </trkpt>
      <trkpt lat="44.64045" lon="4.9598">
        <ele>300.71</ele>
        <time>2019-03-03T12:21:17Z</time>
      </trkpt>
      <trkpt lat="44.64038" lon="4.95998">
        <ele>303.8</ele>
        <time>2019-03-03T12:21:35Z</time>
      </trkpt>
      <trkpt lat="44.64029" lon="4.96018">
        <ele>306.6</ele>
        <time>2019-03-03T12:21:55Z</time>
      </trkpt>
      <trkpt lat="44.64025" lon="4.96036">
        <ele>309.57</ele>
        <time>2019-03-03T12:22:13Z</time>
      </trkpt>
      <trkpt lat="44.64026" lon="4.96056">
        <ele>311.76</ele>
        <time>2019-03-03T12:22:30Z</time>
      </trkpt>
      <trkpt lat="44.64026" lon="4.96074">
        <ele>312.35</ele>
        <time>2019-03-03T12:22:47Z</time>
      </trkpt>
      <trkpt lat="44.64026" lon="4.96081">
        <ele>312.43</ele>
        <time>2019-03-03T12:23:04Z</time>
      </trkpt>
      <trkpt lat="44.64022" lon="4.96085">
        <ele>311.7</ele>
        <time>2019-03-03T12:23:29Z</time>
      </trkpt>
      <trkpt lat="44.64022" lon="4.96089">
        <ele>311.74</ele>
        <time>2019-03-03T12:24:06Z</time>
      </trkpt>
      <trkpt lat="44.64022" lon="4.9609">
        <ele>311.37</ele>
        <time>2019-03-03T12:24:31Z</time>
      </trkpt>
      <trkpt lat="44.64025" lon="4.961">
        <ele>312.31</ele>
        <time>2019-03-03T12:24:47Z</time>
      </trkpt>
      <trkpt lat="44.64025" lon="4.96101">
        <ele>312.36</ele>
        <time>2019-03-03T12:24:48Z</time>
      </trkpt>
      <trkpt lat="44.64026" lon="4.96105">
        <ele>311.91</ele>
        <time>2019-03-03T12:24:51Z</time>
      </trkpt>
      <trkpt lat="44.64029" lon="4.96117">
        <ele>312.61</ele>
        <time>2019-03-03T12:25:06Z</time>
      </trkpt>
      <trkpt lat="44.64029" lon="4.96121">
        <ele>312.12</ele>
        <time>2019-03-03T12:25:10Z</time>
      </trkpt>
      <trkpt lat="44.6403" lon="4.96132">
        <ele>313.46</ele>
        <time>2019-03-03T12:25:18Z</time>
      </trkpt>
      <trkpt lat="44.64026" lon="4.96148">
        <ele>316.62</ele>
        <time>2019-03-03T12:25:31Z</time>
      </trkpt>
      <trkpt lat="44.64023" lon="4.96169">
        <ele>317.06</ele>
        <time>2019-03-03T12:25:48Z</time>
      </trkpt>
      <trkpt lat="44.64023" lon="4.96197">
        <ele>318.31</ele>
        <time>2019-03-03T12:26:05Z</time>
      </trkpt>
      <trkpt lat="44.64027" lon="4.9622">
        <ele>318.86</ele>
        <time>2019-03-03T12:26:20Z</time>
      </trkpt>
      <trkpt lat="44.64025" lon="4.96241">
        <ele>320.66</ele>
        <time>2019-03-03T12:26:36Z</time>
      </trkpt>
      <trkpt lat="44.64018" lon="4.96257">
        <ele>323.13</ele>
        <time>2019-03-03T12:26:51Z</time>
      </trkpt>
      <trkpt lat="44.64011" lon="4.96273">
        <ele>326.27</ele>
        <time>2019-03-03T12:27:05Z</time>
      </trkpt>
      <trkpt lat="44.64007" lon="4.96287">
        <ele>328.21</ele>
        <time>2019-03-03T12:27:21Z</time>
      </trkpt>
      <trkpt lat="44.64001" lon="4.96285">
        <ele>329.34</ele>
        <time>2019-03-03T12:27:39Z</time>
      </trkpt>
      <trkpt lat="44.63994" lon="4.9627">
        <ele>331.51</ele>
        <time>2019-03-03T12:27:55Z</time>
      </trkpt>
      <trkpt lat="44.63989" lon="4.96254">
        <ele>334.13</ele>
        <time>2019-03-03T12:28:10Z</time>
      </trkpt>
      <trkpt lat="44.63982" lon="4.96238">
        <ele>336.52</ele>
        <time>2019-03-03T12:28:26Z</time>
      </trkpt>
      <trkpt lat="44.63973" lon="4.96224">
        <ele>338.95</ele>
        <time>2019-03-03T12:28:40Z</time>
      </trkpt>
      <trkpt lat="44.63961" lon="4.96209">
        <ele>339.46</ele>
        <time>2019-03-03T12:28:55Z</time>
      </trkpt>
      <trkpt lat="44.63954" lon="4.96198">
        <ele>339.49</ele>
        <time>2019-03-03T12:29:06Z</time>
      </trkpt>
      <trkpt lat="44.63939" lon="4.9617">
        <ele>339.62</ele>
        <time>2019-03-03T12:29:28Z</time>
      </trkpt>
      <trkpt lat="44.63927" lon="4.96148">
        <ele>339.31</ele>
        <time>2019-03-03T12:29:46Z</time>
      </trkpt>
      <trkpt lat="44.63928" lon="4.9612">
        <ele>340.27</ele>
        <time>2019-03-03T12:30:04Z</time>
      </trkpt>
      <trkpt lat="44.63931" lon="4.96095">
        <ele>340.53</ele>
        <time>2019-03-03T12:30:21Z</time>
      </trkpt>
      <trkpt lat="44.63923" lon="4.96072">
        <ele>339.87</ele>
        <time>2019-03-03T12:30:38Z</time>
      </trkpt>
      <trkpt lat="44.63919" lon="4.9606">
        <ele>338.02</ele>
        <time>2019-03-03T12:30:46Z</time>
      </trkpt>
      <trkpt lat="44.6391" lon="4.9603">
        <ele>337.84</ele>
        <time>2019-03-03T12:31:05Z</time>
      </trkpt>
      <trkpt lat="44.63903" lon="4.9602">
        <ele>337.37</ele>
        <time>2019-03-03T12:31:15Z</time>
      </trkpt>
      <trkpt lat="44.63896" lon="4.96001">
        <ele>337.33</ele>
        <time>2019-03-03T12:31:29Z</time>
      </trkpt>
      <trkpt lat="44.63894" lon="4.95999">
        <ele>336.77</ele>
        <time>2019-03-03T12:31:32Z</time>
      </trkpt>
      <trkpt lat="44.6389" lon="4.95999">
        <ele>337.06</ele>
        <time>2019-03-03T12:31:36Z</time>
      </trkpt>
      <trkpt lat="44.63869" lon="4.95998">
        <ele>334.87</ele>
        <time>2019-03-03T12:31:56Z</time>
      </trkpt>
      <trkpt lat="44.63858" lon="4.95988">
        <ele>333.7</ele>
        <time>2019-03-03T12:32:14Z</time>
      </trkpt>
      <trkpt lat="44.63856" lon="4.95975">
        <ele>334.28</ele>
        <time>2019-03-03T12:32:28Z</time>
      </trkpt>
      <trkpt lat="44.63859" lon="4.95953">
        <ele>333.88</ele>
        <time>2019-03-03T12:32:50Z</time>
      </trkpt>
      <trkpt lat="44.63859" lon="4.95951">
        <ele>333.7</ele>
        <time>2019-03-03T12:32:53Z</time>
      </trkpt>
      <trkpt lat="44.63859" lon="4.95948">
        <ele>333.88</ele>
        <time>2019-03-03T12:32:55Z</time>
      </trkpt>
      <trkpt lat="44.63858" lon="4.95919">
        <ele>335.12</ele>
        <time>2019-03-03T12:33:15Z</time>
      </trkpt>
      <trkpt lat="44.63854" lon="4.959">
        <ele>337.38</ele>
        <time>2019-03-03T12:33:31Z</time>
      </trkpt>
      <trkpt lat="44.63854" lon="4.95898">
        <ele>337.9</ele>
        <time>2019-03-03T12:33:32Z</time>
      </trkpt>
      <trkpt lat="44.63844" lon="4.95875">
        <ele>340.83</ele>
        <time>2019-03-03T12:33:50Z</time>
      </trkpt>
      <trkpt lat="44.63842" lon="4.95855">
        <ele>342.01</ele>
        <time>2019-03-03T12:34:06Z</time>
      </trkpt>
      <trkpt lat="44.63838" lon="4.95841">
        <ele>344.34</ele>
        <time>2019-03-03T12:34:21Z</time>
      </trkpt>
      <trkpt lat="44.63839" lon="4.95825">
        <ele>347.07</ele>
        <time>2019-03-03T12:34:39Z</time>
      </trkpt>
      <trkpt lat="44.63842" lon="4.95797">
        <ele>350.22</ele>
        <time>2019-03-03T12:34:57Z</time>
      </trkpt>
      <trkpt lat="44.6385" lon="4.95784">
        <ele>353.29</ele>
        <time>2019-03-03T12:35:10Z</time>
      </trkpt>
      <trkpt lat="44.63853" lon="4.95767">
        <ele>355.24</ele>
        <time>2019-03-03T12:35:26Z</time>
      </trkpt>
      <trkpt lat="44.63854" lon="4.95755">
        <ele>357.48</ele>
        <time>2019-03-03T12:35:37Z</time>
      </trkpt>
      <trkpt lat="44.63842" lon="4.95739">
        <ele>359.28</ele>
        <time>2019-03-03T12:35:54Z</time>
      </trkpt>
      <trkpt lat="44.63843" lon="4.9572">
        <ele>360.26</ele>
        <time>2019-03-03T12:36:09Z</time>
      </trkpt>
      <trkpt lat="44.63847" lon="4.9571">
        <ele>360.25</ele>
        <time>2019-03-03T12:36:26Z</time>
      </trkpt>
      <trkpt lat="44.63847" lon="4.95707">
        <ele>360.07</ele>
        <time>2019-03-03T12:36:53Z</time>
      </trkpt>
      <trkpt lat="44.63849" lon="4.95708">
        <ele>359.61</ele>
        <time>2019-03-03T12:37:28Z</time>
      </trkpt>
      <trkpt lat="44.63847" lon="4.9571">
        <ele>360.41</ele>
        <time>2019-03-03T12:38:03Z</time>
      </trkpt>
      <trkpt lat="44.63848" lon="4.9571">
        <ele>359.86</ele>
        <time>2019-03-03T12:38:25Z</time>
      </trkpt>
      <trkpt lat="44.63846" lon="4.95706">
        <ele>359.71</ele>
        <time>2019-03-03T12:38:43Z</time>
      </trkpt>
      <trkpt lat="44.63845" lon="4.95704">
        <ele>359.84</ele>
        <time>2019-03-03T12:39:08Z</time>
      </trkpt>
      <trkpt lat="44.63843" lon="4.95698">
        <ele>359.92</ele>
        <time>2019-03-03T12:39:24Z</time>
      </trkpt>
      <trkpt lat="44.63842" lon="4.95694">
        <ele>359.41</ele>
        <time>2019-03-03T12:39:27Z</time>
      </trkpt>
      <trkpt lat="44.63829" lon="4.95683">
        <ele>360.91</ele>
        <time>2019-03-03T12:39:41Z</time>
      </trkpt>
      <trkpt lat="44.63823" lon="4.95674">
        <ele>364</ele>
        <time>2019-03-03T12:39:52Z</time>
      </trkpt>
      <trkpt lat="44.63823" lon="4.95671">
        <ele>364.24</ele>
        <time>2019-03-03T12:39:55Z</time>
      </trkpt>
      <trkpt lat="44.63821" lon="4.95659">
        <ele>364.88</ele>
        <time>2019-03-03T12:40:03Z</time>
      </trkpt>
      <trkpt lat="44.63805" lon="4.95641">
        <ele>368.3</ele>
        <time>2019-03-03T12:40:25Z</time>
      </trkpt>
      <trkpt lat="44.63796" lon="4.95636">
        <ele>368.56</ele>
        <time>2019-03-03T12:40:37Z</time>
      </trkpt>
      <trkpt lat="44.63786" lon="4.95621">
        <ele>369.88</ele>
        <time>2019-03-03T12:40:54Z</time>
      </trkpt>
      <trkpt lat="44.63783" lon="4.95615">
        <ele>370.01</ele>
        <time>2019-03-03T12:41:08Z</time>
      </trkpt>
      <trkpt lat="44.63777" lon="4.95608">
        <ele>368.28</ele>
        <time>2019-03-03T12:41:17Z</time>
      </trkpt>
      <trkpt lat="44.63776" lon="4.95606">
        <ele>368.01</ele>
        <time>2019-03-03T12:41:19Z</time>
      </trkpt>
      <trkpt lat="44.63772" lon="4.956">
        <ele>367.74</ele>
        <time>2019-03-03T12:41:37Z</time>
      </trkpt>
      <trkpt lat="44.63773" lon="4.95599">
        <ele>367.45</ele>
        <time>2019-03-03T12:42:24Z</time>
      </trkpt>
      <trkpt lat="44.63772" lon="4.95599">
        <ele>367.49</ele>
        <time>2019-03-03T12:42:35Z</time>
      </trkpt>
      <trkpt lat="44.63764" lon="4.956">
        <ele>368.34</ele>
        <time>2019-03-03T12:42:45Z</time>
      </trkpt>
      <trkpt lat="44.63757" lon="4.956">
        <ele>368.43</ele>
        <time>2019-03-03T12:42:52Z</time>
      </trkpt>
      <trkpt lat="44.6375" lon="4.95601">
        <ele>367.74</ele>
        <time>2019-03-03T12:43:01Z</time>
      </trkpt>
      <trkpt lat="44.63744" lon="4.95603">
        <ele>366.74</ele>
        <time>2019-03-03T12:43:08Z</time>
      </trkpt>
      <trkpt lat="44.63734" lon="4.95604">
        <ele>365.45</ele>
        <time>2019-03-03T12:43:18Z</time>
      </trkpt>
      <trkpt lat="44.63727" lon="4.956">
        <ele>364.25</ele>
        <time>2019-03-03T12:43:26Z</time>
      </trkpt>
      <trkpt lat="44.63721" lon="4.95598">
        <ele>364.07</ele>
        <time>2019-03-03T12:43:33Z</time>
      </trkpt>
      <trkpt lat="44.6371" lon="4.95599">
        <ele>363.08</ele>
        <time>2019-03-03T12:43:42Z</time>
      </trkpt>
      <trkpt lat="44.63707" lon="4.95598">
        <ele>362.75</ele>
        <time>2019-03-03T12:43:45Z</time>
      </trkpt>
      <trkpt lat="44.63704" lon="4.95593">
        <ele>362.68</ele>
        <time>2019-03-03T12:43:50Z</time>
      </trkpt>
      <trkpt lat="44.63689" lon="4.9558">
        <ele>363.66</ele>
        <time>2019-03-03T12:44:06Z</time>
      </trkpt>
      <trkpt lat="44.63668" lon="4.95569">
        <ele>363.65</ele>
        <time>2019-03-03T12:44:26Z</time>
      </trkpt>
      <trkpt lat="44.63655" lon="4.9556">
        <ele>363.36</ele>
        <time>2019-03-03T12:44:40Z</time>
      </trkpt>
      <trkpt lat="44.63647" lon="4.95563">
        <ele>362.78</ele>
        <time>2019-03-03T12:44:57Z</time>
      </trkpt>
      <trkpt lat="44.63645" lon="4.95562">
        <ele>362.64</ele>
        <time>2019-03-03T12:45:01Z</time>
      </trkpt>
      <trkpt lat="44.63637" lon="4.95563">
        <ele>361.84</ele>
        <time>2019-03-03T12:45:15Z</time>
      </trkpt>
      <trkpt lat="44.63631" lon="4.95569">
        <ele>360.8</ele>
        <time>2019-03-03T12:45:28Z</time>
      </trkpt>
      <trkpt lat="44.63621" lon="4.95577">
        <ele>358.78</ele>
        <time>2019-03-03T12:45:44Z</time>
      </trkpt>
      <trkpt lat="44.6362" lon="4.95583">
        <ele>358.5</ele>
        <time>2019-03-03T12:45:49Z</time>
      </trkpt>
      <trkpt lat="44.6361" lon="4.95587">
        <ele>356.37</ele>
        <time>2019-03-03T12:46:04Z</time>
      </trkpt>
      <trkpt lat="44.63599" lon="4.9559">
        <ele>355.91</ele>
        <time>2019-03-03T12:46:19Z</time>
      </trkpt>
      <trkpt lat="44.63598" lon="4.95597">
        <ele>354.41</ele>
        <time>2019-03-03T12:46:25Z</time>
      </trkpt>
      <trkpt lat="44.63614" lon="4.95611">
        <ele>354.63</ele>
        <time>2019-03-03T12:46:42Z</time>
      </trkpt>
      <trkpt lat="44.63627" lon="4.95625">
        <ele>354.07</ele>
        <time>2019-03-03T12:46:59Z</time>
      </trkpt>
      <trkpt lat="44.63634" lon="4.95633">
        <ele>354.1</ele>
        <time>2019-03-03T12:47:14Z</time>
      </trkpt>
      <trkpt lat="44.63636" lon="4.95634">
        <ele>354.47</ele>
        <time>2019-03-03T12:47:16Z</time>
      </trkpt>
      <trkpt lat="44.63649" lon="4.95645">
        <ele>353.75</ele>
        <time>2019-03-03T12:47:28Z</time>
      </trkpt>
      <trkpt lat="44.63649" lon="4.95651">
        <ele>353.36</ele>
        <time>2019-03-03T12:47:33Z</time>
      </trkpt>
      <trkpt lat="44.63656" lon="4.95669">
        <ele>351.2</ele>
        <time>2019-03-03T12:47:49Z</time>
      </trkpt>
      <trkpt lat="44.63654" lon="4.95688">
        <ele>348.58</ele>
        <time>2019-03-03T12:48:05Z</time>
      </trkpt>
      <trkpt lat="44.63647" lon="4.957">
        <ele>345.59</ele>
        <time>2019-03-03T12:48:21Z</time>
      </trkpt>
      <trkpt lat="44.63648" lon="4.95707">
        <ele>343.79</ele>
        <time>2019-03-03T12:48:33Z</time>
      </trkpt>
      <trkpt lat="44.63659" lon="4.95715">
        <ele>342.64</ele>
        <time>2019-03-03T12:48:47Z</time>
      </trkpt>
      <trkpt lat="44.63663" lon="4.95718">
        <ele>342.11</ele>
        <time>2019-03-03T12:48:51Z</time>
      </trkpt>
      <trkpt lat="44.63676" lon="4.95727">
        <ele>340.46</ele>
        <time>2019-03-03T12:49:06Z</time>
      </trkpt>
      <trkpt lat="44.63676" lon="4.9574">
        <ele>337.75</ele>
        <time>2019-03-03T12:49:19Z</time>
      </trkpt>
      <trkpt lat="44.63668" lon="4.95739">
        <ele>336.69</ele>
        <time>2019-03-03T12:49:30Z</time>
      </trkpt>
      <trkpt lat="44.63653" lon="4.95735">
        <ele>334.88</ele>
        <time>2019-03-03T12:49:45Z</time>
      </trkpt>
      <trkpt lat="44.6365" lon="4.95742">
        <ele>332.15</ele>
        <time>2019-03-03T12:49:58Z</time>
      </trkpt>
      <trkpt lat="44.6365" lon="4.95743">
        <ele>332.76</ele>
        <time>2019-03-03T12:50:09Z</time>
      </trkpt>
      <trkpt lat="44.63651" lon="4.95745">
        <ele>332.29</ele>
        <time>2019-03-03T12:50:15Z</time>
      </trkpt>
      <trkpt lat="44.63654" lon="4.9575">
        <ele>331.53</ele>
        <time>2019-03-03T12:50:19Z</time>
      </trkpt>
      <trkpt lat="44.63659" lon="4.95755">
        <ele>331.56</ele>
        <time>2019-03-03T12:50:28Z</time>
      </trkpt>
      <trkpt lat="44.63663" lon="4.95761">
        <ele>331.23</ele>
        <time>2019-03-03T12:50:33Z</time>
      </trkpt>
      <trkpt lat="44.63672" lon="4.95779">
        <ele>331.24</ele>
        <time>2019-03-03T12:50:49Z</time>
      </trkpt>
      <trkpt lat="44.63681" lon="4.95796">
        <ele>331.24</ele>
        <time>2019-03-03T12:51:05Z</time>
      </trkpt>
      <trkpt lat="44.63686" lon="4.95803">
        <ele>330.86</ele>
        <time>2019-03-03T12:51:11Z</time>
      </trkpt>
      <trkpt lat="44.63693" lon="4.95814">
        <ele>330.49</ele>
        <time>2019-03-03T12:51:21Z</time>
      </trkpt>
      <trkpt lat="44.63696" lon="4.95818">
        <ele>330.96</ele>
        <time>2019-03-03T12:51:25Z</time>
      </trkpt>
      <trkpt lat="44.63706" lon="4.9583">
        <ele>331.23</ele>
        <time>2019-03-03T12:51:36Z</time>
      </trkpt>
      <trkpt lat="44.63723" lon="4.95851">
        <ele>331.97</ele>
        <time>2019-03-03T12:51:56Z</time>
      </trkpt>
      <trkpt lat="44.63724" lon="4.95853">
        <ele>331.61</ele>
        <time>2019-03-03T12:51:58Z</time>
      </trkpt>
      <trkpt lat="44.63729" lon="4.95854">
        <ele>332.56</ele>
        <time>2019-03-03T12:52:16Z</time>
      </trkpt>
      <trkpt lat="44.63737" lon="4.95854">
        <ele>333.38</ele>
        <time>2019-03-03T12:52:33Z</time>
      </trkpt>
      <trkpt lat="44.63742" lon="4.95854">
        <ele>334.38</ele>
        <time>2019-03-03T12:52:37Z</time>
      </trkpt>
      <trkpt lat="44.63757" lon="4.95863">
        <ele>333.76</ele>
        <time>2019-03-03T12:52:51Z</time>
      </trkpt>
      <trkpt lat="44.63776" lon="4.9587">
        <ele>333.89</ele>
        <time>2019-03-03T12:53:08Z</time>
      </trkpt>
      <trkpt lat="44.63794" lon="4.95875">
        <ele>334.01</ele>
        <time>2019-03-03T12:53:23Z</time>
      </trkpt>
      <trkpt lat="44.63795" lon="4.95875">
        <ele>333.95</ele>
        <time>2019-03-03T12:53:24Z</time>
      </trkpt>
      <trkpt lat="44.63801" lon="4.95882">
        <ele>333.3</ele>
        <time>2019-03-03T12:53:30Z</time>
      </trkpt>
      <trkpt lat="44.63815" lon="4.95912">
        <ele>331.71</ele>
        <time>2019-03-03T12:53:52Z</time>
      </trkpt>
      <trkpt lat="44.63829" lon="4.9593">
        <ele>331.03</ele>
        <time>2019-03-03T12:54:08Z</time>
      </trkpt>
      <trkpt lat="44.63844" lon="4.95953">
        <ele>330.79</ele>
        <time>2019-03-03T12:54:27Z</time>
      </trkpt>
      <trkpt lat="44.63857" lon="4.95974">
        <ele>331.21</ele>
        <time>2019-03-03T12:54:45Z</time>
      </trkpt>
      <trkpt lat="44.63854" lon="4.95995">
        <ele>330.77</ele>
        <time>2019-03-03T12:55:01Z</time>
      </trkpt>
      <trkpt lat="44.6385" lon="4.96004">
        <ele>329.93</ele>
        <time>2019-03-03T12:55:10Z</time>
      </trkpt>
      <trkpt lat="44.63833" lon="4.96025">
        <ele>328.24</ele>
        <time>2019-03-03T12:55:29Z</time>
      </trkpt>
      <trkpt lat="44.63825" lon="4.96042">
        <ele>324.98</ele>
        <time>2019-03-03T12:55:43Z</time>
      </trkpt>
      <trkpt lat="44.63818" lon="4.96045">
        <ele>321.93</ele>
        <time>2019-03-03T12:55:54Z</time>
      </trkpt>
      <trkpt lat="44.63805" lon="4.96039">
        <ele>317.88</ele>
        <time>2019-03-03T12:56:07Z</time>
      </trkpt>
      <trkpt lat="44.63802" lon="4.96036">
        <ele>317.69</ele>
        <time>2019-03-03T12:56:17Z</time>
      </trkpt>
      <trkpt lat="44.63794" lon="4.96029">
        <ele>314.16</ele>
        <time>2019-03-03T12:56:29Z</time>
      </trkpt>
      <trkpt lat="44.63789" lon="4.96026">
        <ele>311.1</ele>
        <time>2019-03-03T12:56:38Z</time>
      </trkpt>
      <trkpt lat="44.63781" lon="4.9602">
        <ele>307.52</ele>
        <time>2019-03-03T12:56:50Z</time>
      </trkpt>
      <trkpt lat="44.63767" lon="4.96008">
        <ele>304.5</ele>
        <time>2019-03-03T12:57:04Z</time>
      </trkpt>
      <trkpt lat="44.63762" lon="4.96001">
        <ele>302.37</ele>
        <time>2019-03-03T12:57:18Z</time>
      </trkpt>
      <trkpt lat="44.63757" lon="4.95998">
        <ele>299.32</ele>
        <time>2019-03-03T12:57:33Z</time>
      </trkpt>
      <trkpt lat="44.63746" lon="4.96005">
        <ele>295.99</ele>
        <time>2019-03-03T12:57:48Z</time>
      </trkpt>
      <trkpt lat="44.63741" lon="4.96008">
        <ele>294.14</ele>
        <time>2019-03-03T12:57:54Z</time>
      </trkpt>
      <trkpt lat="44.63741" lon="4.96011">
        <ele>292.41</ele>
        <time>2019-03-03T12:57:57Z</time>
      </trkpt>
      <trkpt lat="44.63743" lon="4.96016">
        <ele>293.05</ele>
        <time>2019-03-03T12:58:01Z</time>
      </trkpt>
      <trkpt lat="44.63753" lon="4.96033">
        <ele>292.43</ele>
        <time>2019-03-03T12:58:15Z</time>
      </trkpt>
      <trkpt lat="44.63754" lon="4.96047">
        <ele>289.61</ele>
        <time>2019-03-03T12:58:25Z</time>
      </trkpt>
      <trkpt lat="44.63765" lon="4.96071">
        <ele>288.9</ele>
        <time>2019-03-03T12:58:41Z</time>
      </trkpt>
      <trkpt lat="44.6377" lon="4.9608">
        <ele>289.47</ele>
        <time>2019-03-03T12:58:51Z</time>
      </trkpt>
      <trkpt lat="44.63774" lon="4.96085">
        <ele>289.04</ele>
        <time>2019-03-03T12:58:55Z</time>
      </trkpt>
      <trkpt lat="44.63789" lon="4.96107">
        <ele>288.78</ele>
        <time>2019-03-03T12:59:12Z</time>
      </trkpt>
      <trkpt lat="44.63795" lon="4.96118">
        <ele>289.25</ele>
        <time>2019-03-03T12:59:20Z</time>
      </trkpt>
      <trkpt lat="44.63798" lon="4.96134">
        <ele>286.79</ele>
        <time>2019-03-03T12:59:31Z</time>
      </trkpt>
      <trkpt lat="44.63798" lon="4.96143">
        <ele>284.13</ele>
        <time>2019-03-03T12:59:38Z</time>
      </trkpt>
      <trkpt lat="44.638" lon="4.96161">
        <ele>280.96</ele>
        <time>2019-03-03T12:59:52Z</time>
      </trkpt>
      <trkpt lat="44.63798" lon="4.96174">
        <ele>277.94</ele>
        <time>2019-03-03T13:00:04Z</time>
      </trkpt>
      <trkpt lat="44.63788" lon="4.96173">
        <ele>274.86</ele>
        <time>2019-03-03T13:00:17Z</time>
      </trkpt>
      <trkpt lat="44.63786" lon="4.96171">
        <ele>275.01</ele>
        <time>2019-03-03T13:00:20Z</time>
      </trkpt>
      <trkpt lat="44.63776" lon="4.96165">
        <ele>272.66</ele>
        <time>2019-03-03T13:00:32Z</time>
      </trkpt>
      <trkpt lat="44.63768" lon="4.96167">
        <ele>269.43</ele>
        <time>2019-03-03T13:00:42Z</time>
      </trkpt>
      <trkpt lat="44.63766" lon="4.96168">
        <ele>268.67</ele>
        <time>2019-03-03T13:00:44Z</time>
      </trkpt>
      <trkpt lat="44.63763" lon="4.96172">
        <ele>267.07</ele>
        <time>2019-03-03T13:00:49Z</time>
      </trkpt>
      <trkpt lat="44.63758" lon="4.96179">
        <ele>265.33</ele>
        <time>2019-03-03T13:00:59Z</time>
      </trkpt>
      <trkpt lat="44.63754" lon="4.96198">
        <ele>261.42</ele>
        <time>2019-03-03T13:01:15Z</time>
      </trkpt>
      <trkpt lat="44.63746" lon="4.96204">
        <ele>259.5</ele>
        <time>2019-03-03T13:01:24Z</time>
      </trkpt>
      <trkpt lat="44.63739" lon="4.96213">
        <ele>257.09</ele>
        <time>2019-03-03T13:01:35Z</time>
      </trkpt>
      <trkpt lat="44.63732" lon="4.96219">
        <ele>255.18</ele>
        <time>2019-03-03T13:01:46Z</time>
      </trkpt>
      <trkpt lat="44.63723" lon="4.96227">
        <ele>252.11</ele>
        <time>2019-03-03T13:02:01Z</time>
      </trkpt>
      <trkpt lat="44.63718" lon="4.96231">
        <ele>250.71</ele>
        <time>2019-03-03T13:02:08Z</time>
      </trkpt>
      <trkpt lat="44.63711" lon="4.96235">
        <ele>249.05</ele>
        <time>2019-03-03T13:02:20Z</time>
      </trkpt>
      <trkpt lat="44.6371" lon="4.96238">
        <ele>249.53</ele>
        <time>2019-03-03T13:02:22Z</time>
      </trkpt>
      <trkpt lat="44.63701" lon="4.96258">
        <ele>246.35</ele>
        <time>2019-03-03T13:02:36Z</time>
      </trkpt>
      <trkpt lat="44.63694" lon="4.96273">
        <ele>243.13</ele>
        <time>2019-03-03T13:02:48Z</time>
      </trkpt>
      <trkpt lat="44.6369" lon="4.96292">
        <ele>239.55</ele>
        <time>2019-03-03T13:03:01Z</time>
      </trkpt>
      <trkpt lat="44.6369" lon="4.96299">
        <ele>238.55</ele>
        <time>2019-03-03T13:03:06Z</time>
      </trkpt>
      <trkpt lat="44.63707" lon="4.96327">
        <ele>236.41</ele>
        <time>2019-03-03T13:03:30Z</time>
      </trkpt>
      <trkpt lat="44.63709" lon="4.96338">
        <ele>236.02</ele>
        <time>2019-03-03T13:03:39Z</time>
      </trkpt>
      <trkpt lat="44.63707" lon="4.96347">
        <ele>235.09</ele>
        <time>2019-03-03T13:03:50Z</time>
      </trkpt>
      <trkpt lat="44.63699" lon="4.96365">
        <ele>232.04</ele>
        <time>2019-03-03T13:04:07Z</time>
      </trkpt>
      <trkpt lat="44.63689" lon="4.96374">
        <ele>230.02</ele>
        <time>2019-03-03T13:04:23Z</time>
      </trkpt>
      <trkpt lat="44.63678" lon="4.96375">
        <ele>229.47</ele>
        <time>2019-03-03T13:04:36Z</time>
      </trkpt>
      <trkpt lat="44.63672" lon="4.96374">
        <ele>228.54</ele>
        <time>2019-03-03T13:04:43Z</time>
      </trkpt>
      <trkpt lat="44.6367" lon="4.96374">
        <ele>229.01</ele>
        <time>2019-03-03T13:04:45Z</time>
      </trkpt>
      <trkpt lat="44.63652" lon="4.96374">
        <ele>226.03</ele>
        <time>2019-03-03T13:05:00Z</time>
      </trkpt>
      <trkpt lat="44.63647" lon="4.96373">
        <ele>225.43</ele>
        <time>2019-03-03T13:05:05Z</time>
      </trkpt>
      <trkpt lat="44.6364" lon="4.96391">
        <ele>222.86</ele>
        <time>2019-03-03T13:05:22Z</time>
      </trkpt>
      <trkpt lat="44.63652" lon="4.96421">
        <ele>223.62</ele>
        <time>2019-03-03T13:05:43Z</time>
      </trkpt>
      <trkpt lat="44.63656" lon="4.96425">
        <ele>222.85</ele>
        <time>2019-03-03T13:05:47Z</time>
      </trkpt>
      <trkpt lat="44.63658" lon="4.9643">
        <ele>223.3</ele>
        <time>2019-03-03T13:05:51Z</time>
      </trkpt>
      <trkpt lat="44.63659" lon="4.96436">
        <ele>223</ele>
        <time>2019-03-03T13:05:56Z</time>
      </trkpt>
      <trkpt lat="44.63667" lon="4.96457">
        <ele>220.81</ele>
        <time>2019-03-03T13:06:12Z</time>
      </trkpt>
      <trkpt lat="44.63669" lon="4.96483">
        <ele>218.41</ele>
        <time>2019-03-03T13:06:28Z</time>
      </trkpt>
      <trkpt lat="44.63663" lon="4.9651">
        <ele>217.05</ele>
        <time>2019-03-03T13:06:43Z</time>
      </trkpt>
      <trkpt lat="44.63652" lon="4.96548">
        <ele>215.95</ele>
        <time>2019-03-03T13:07:05Z</time>
      </trkpt>
      <trkpt lat="44.6364" lon="4.9658">
        <ele>215.02</ele>
        <time>2019-03-03T13:07:24Z</time>
      </trkpt>
      <trkpt lat="44.63632" lon="4.96613">
        <ele>213.35</ele>
        <time>2019-03-03T13:07:44Z</time>
      </trkpt>
      <trkpt lat="44.63629" lon="4.9664">
        <ele>210.94</ele>
        <time>2019-03-03T13:08:00Z</time>
      </trkpt>
      <trkpt lat="44.6362" lon="4.96669">
        <ele>207.26</ele>
        <time>2019-03-03T13:08:19Z</time>
      </trkpt>
      <trkpt lat="44.63599" lon="4.96678">
        <ele>206.37</ele>
        <time>2019-03-03T13:08:37Z</time>
      </trkpt>
      <trkpt lat="44.6357" lon="4.96689">
        <ele>205.07</ele>
        <time>2019-03-03T13:09:01Z</time>
      </trkpt>
      <trkpt lat="44.63557" lon="4.96694">
        <ele>204.36</ele>
        <time>2019-03-03T13:09:12Z</time>
      </trkpt>
      <trkpt lat="44.63531" lon="4.96703">
        <ele>204.37</ele>
        <time>2019-03-03T13:09:35Z</time>
      </trkpt>
      <trkpt lat="44.63512" lon="4.96712">
        <ele>204.05</ele>
        <time>2019-03-03T13:09:54Z</time>
      </trkpt>
      <trkpt lat="44.63501" lon="4.96746">
        <ele>203.15</ele>
        <time>2019-03-03T13:10:17Z</time>
      </trkpt>
      <trkpt lat="44.63487" lon="4.9678">
        <ele>202.97</ele>
        <time>2019-03-03T13:10:41Z</time>
      </trkpt>
      <trkpt lat="44.63466" lon="4.96791">
        <ele>202.18</ele>
        <time>2019-03-03T13:11:02Z</time>
      </trkpt>
      <trkpt lat="44.63447" lon="4.96798">
        <ele>201.28</ele>
        <time>2019-03-03T13:11:20Z</time>
      </trkpt>
      <trkpt lat="44.63429" lon="4.96804">
        <ele>201.68</ele>
        <time>2019-03-03T13:11:38Z</time>
      </trkpt>
      <trkpt lat="44.63409" lon="4.96818">
        <ele>201.27</ele>
        <time>2019-03-03T13:11:55Z</time>
      </trkpt>
      <trkpt lat="44.63385" lon="4.9683">
        <ele>199.93</ele>
        <time>2019-03-03T13:12:14Z</time>
      </trkpt>
      <trkpt lat="44.63356" lon="4.96842">
        <ele>199.22</ele>
        <time>2019-03-03T13:12:39Z</time>
      </trkpt>
      <trkpt lat="44.63325" lon="4.96854">
        <ele>197.72</ele>
        <time>2019-03-03T13:13:06Z</time>
      </trkpt>
      <trkpt lat="44.63317" lon="4.96856">
        <ele>197.46</ele>
        <time>2019-03-03T13:13:13Z</time>
      </trkpt>
      <trkpt lat="44.63311" lon="4.96859">
        <ele>198.51</ele>
        <time>2019-03-03T13:13:19Z</time>
      </trkpt>
      <trkpt lat="44.63284" lon="4.96867">
        <ele>196.46</ele>
        <time>2019-03-03T13:13:43Z</time>
      </trkpt>
      <trkpt lat="44.63256" lon="4.96875">
        <ele>196.62</ele>
        <time>2019-03-03T13:14:07Z</time>
      </trkpt>
      <trkpt lat="44.63226" lon="4.96885">
        <ele>196.28</ele>
        <time>2019-03-03T13:14:33Z</time>
      </trkpt>
      <trkpt lat="44.63225" lon="4.96885">
        <ele>196.4</ele>
        <time>2019-03-03T13:14:34Z</time>
      </trkpt>
      <trkpt lat="44.63199" lon="4.96894">
        <ele>196.68</ele>
        <time>2019-03-03T13:14:56Z</time>
      </trkpt>
      <trkpt lat="44.63174" lon="4.96901">
        <ele>196.08</ele>
        <time>2019-03-03T13:15:18Z</time>
      </trkpt>
      <trkpt lat="44.63146" lon="4.96913">
        <ele>197.08</ele>
        <time>2019-03-03T13:15:44Z</time>
      </trkpt>
      <trkpt lat="44.63134" lon="4.9693">
        <ele>198.53</ele>
        <time>2019-03-03T13:15:59Z</time>
      </trkpt>
      <trkpt lat="44.63119" lon="4.9696">
        <ele>198.58</ele>
        <time>2019-03-03T13:16:21Z</time>
      </trkpt>
      <trkpt lat="44.63106" lon="4.96982">
        <ele>198.5</ele>
        <time>2019-03-03T13:16:39Z</time>
      </trkpt>
      <trkpt lat="44.63092" lon="4.97004">
        <ele>198.82</ele>
        <time>2019-03-03T13:16:57Z</time>
      </trkpt>
      <trkpt lat="44.63077" lon="4.97023">
        <ele>199.4</ele>
        <time>2019-03-03T13:17:14Z</time>
      </trkpt>
      <trkpt lat="44.6307" lon="4.97039">
        <ele>200.68</ele>
        <time>2019-03-03T13:17:27Z</time>
      </trkpt>
      <trkpt lat="44.63072" lon="4.97049">
        <ele>201.11</ele>
        <time>2019-03-03T13:17:36Z</time>
      </trkpt>
      <trkpt lat="44.63082" lon="4.97066">
        <ele>202.65</ele>
        <time>2019-03-03T13:17:50Z</time>
      </trkpt>
      <trkpt lat="44.63087" lon="4.97075">
        <ele>204.39</ele>
        <time>2019-03-03T13:17:57Z</time>
      </trkpt>
      <trkpt lat="44.63098" lon="4.97097">
        <ele>206.2</ele>
        <time>2019-03-03T13:18:13Z</time>
      </trkpt>
      <trkpt lat="44.63103" lon="4.97124">
        <ele>208.55</ele>
        <time>2019-03-03T13:18:31Z</time>
      </trkpt>
      <trkpt lat="44.63111" lon="4.97148">
        <ele>210.65</ele>
        <time>2019-03-03T13:18:49Z</time>
      </trkpt>
      <trkpt lat="44.63111" lon="4.97159">
        <ele>212.39</ele>
        <time>2019-03-03T13:19:03Z</time>
      </trkpt>
      <trkpt lat="44.63109" lon="4.97158">
        <ele>212.87</ele>
        <time>2019-03-03T13:19:05Z</time>
      </trkpt>
      <trkpt lat="44.63094" lon="4.97144">
        <ele>213.64</ele>
        <time>2019-03-03T13:19:23Z</time>
      </trkpt>
      <trkpt lat="44.63083" lon="4.97129">
        <ele>215</ele>
        <time>2019-03-03T13:19:37Z</time>
      </trkpt>
      <trkpt lat="44.63063" lon="4.97103">
        <ele>216.22</ele>
        <time>2019-03-03T13:20:00Z</time>
      </trkpt>
      <trkpt lat="44.63051" lon="4.97105">
        <ele>217.44</ele>
        <time>2019-03-03T13:20:11Z</time>
      </trkpt>
      <trkpt lat="44.63049" lon="4.97108">
        <ele>217.73</ele>
        <time>2019-03-03T13:20:14Z</time>
      </trkpt>
      <trkpt lat="44.63022" lon="4.97116">
        <ele>217.99</ele>
        <time>2019-03-03T13:20:37Z</time>
      </trkpt>
      <trkpt lat="44.63003" lon="4.97119">
        <ele>219.16</ele>
        <time>2019-03-03T13:20:54Z</time>
      </trkpt>
      <trkpt lat="44.62986" lon="4.97125">
        <ele>220.46</ele>
        <time>2019-03-03T13:21:10Z</time>
      </trkpt>
      <trkpt lat="44.62967" lon="4.97131">
        <ele>221.96</ele>
        <time>2019-03-03T13:21:28Z</time>
      </trkpt>
      <trkpt lat="44.62945" lon="4.97136">
        <ele>223.12</ele>
        <time>2019-03-03T13:21:48Z</time>
      </trkpt>
      <trkpt lat="44.62924" lon="4.97138">
        <ele>224.25</ele>
        <time>2019-03-03T13:22:05Z</time>
      </trkpt>
      <trkpt lat="44.629" lon="4.9715">
        <ele>222.66</ele>
        <time>2019-03-03T13:22:28Z</time>
      </trkpt>
      <trkpt lat="44.62883" lon="4.97168">
        <ele>221.55</ele>
        <time>2019-03-03T13:22:48Z</time>
      </trkpt>
      <trkpt lat="44.62875" lon="4.97175">
        <ele>219.92</ele>
        <time>2019-03-03T13:23:00Z</time>
      </trkpt>
      <trkpt lat="44.62872" lon="4.97176">
        <ele>219.46</ele>
        <time>2019-03-03T13:23:03Z</time>
      </trkpt>
      <trkpt lat="44.62859" lon="4.97186">
        <ele>217.11</ele>
        <time>2019-03-03T13:23:17Z</time>
      </trkpt>
      <trkpt lat="44.62856" lon="4.9719">
        <ele>216.36</ele>
        <time>2019-03-03T13:23:21Z</time>
      </trkpt>
      <trkpt lat="44.62847" lon="4.97212">
        <ele>214.53</ele>
        <time>2019-03-03T13:23:37Z</time>
      </trkpt>
      <trkpt lat="44.62844" lon="4.97235">
        <ele>212.15</ele>
        <time>2019-03-03T13:23:53Z</time>
      </trkpt>
      <trkpt lat="44.6284" lon="4.97248">
        <ele>211.06</ele>
        <time>2019-03-03T13:24:07Z</time>
      </trkpt>
      <trkpt lat="44.62827" lon="4.97254">
        <ele>207.44</ele>
        <time>2019-03-03T13:24:21Z</time>
      </trkpt>
      <trkpt lat="44.62809" lon="4.97259">
        <ele>204.65</ele>
        <time>2019-03-03T13:24:41Z</time>
      </trkpt>
      <trkpt lat="44.62794" lon="4.97262">
        <ele>202.69</ele>
        <time>2019-03-03T13:25:03Z</time>
      </trkpt>
      <trkpt lat="44.62783" lon="4.97268">
        <ele>201.66</ele>
        <time>2019-03-03T13:25:26Z</time>
      </trkpt>
      <trkpt lat="44.62781" lon="4.97268">
        <ele>201.86</ele>
        <time>2019-03-03T13:25:33Z</time>
      </trkpt>
      <trkpt lat="44.62772" lon="4.97283">
        <ele>201.58</ele>
        <time>2019-03-03T13:25:56Z</time>
      </trkpt>
      <trkpt lat="44.62763" lon="4.97285">
        <ele>200.71</ele>
        <time>2019-03-03T13:26:10Z</time>
      </trkpt>
      <trkpt lat="44.62752" lon="4.97287">
        <ele>199.74</ele>
        <time>2019-03-03T13:26:25Z</time>
      </trkpt>
      <trkpt lat="44.62748" lon="4.97288">
        <ele>199.28</ele>
        <time>2019-03-03T13:26:30Z</time>
      </trkpt>
      <trkpt lat="44.62737" lon="4.97294">
        <ele>198.93</ele>
        <time>2019-03-03T13:26:43Z</time>
      </trkpt>
      <trkpt lat="44.62726" lon="4.97299">
        <ele>199.04</ele>
        <time>2019-03-03T13:26:53Z</time>
      </trkpt>
      <trkpt lat="44.62719" lon="4.97299">
        <ele>198.54</ele>
        <time>2019-03-03T13:27:01Z</time>
      </trkpt>
      <trkpt lat="44.62712" lon="4.97306">
        <ele>199.27</ele>
        <time>2019-03-03T13:27:25Z</time>
      </trkpt>
      <trkpt lat="44.62707" lon="4.9732">
        <ele>198.83</ele>
        <time>2019-03-03T13:27:39Z</time>
      </trkpt>
      <trkpt lat="44.62706" lon="4.97328">
        <ele>199.57</ele>
        <time>2019-03-03T13:27:57Z</time>
      </trkpt>
      <trkpt lat="44.6271" lon="4.97332">
        <ele>199.02</ele>
        <time>2019-03-03T13:28:02Z</time>
      </trkpt>
      <trkpt lat="44.62717" lon="4.97338">
        <ele>199.35</ele>
        <time>2019-03-03T13:28:18Z</time>
      </trkpt>
      <trkpt lat="44.6272" lon="4.97335">
        <ele>199.6</ele>
        <time>2019-03-03T13:28:38Z</time>
      </trkpt>
      <trkpt lat="44.62722" lon="4.97335">
        <ele>199.38</ele>
        <time>2019-03-03T13:28:59Z</time>
      </trkpt>
      <trkpt lat="44.62724" lon="4.97331">
        <ele>199.41</ele>
        <time>2019-03-03T13:29:36Z</time>
      </trkpt>
      <trkpt lat="44.62721" lon="4.97328">
        <ele>199.79</ele>
        <time>2019-03-03T13:29:58Z</time>
      </trkpt>
      <trkpt lat="44.62727" lon="4.97326">
        <ele>199.42</ele>
        <time>2019-03-03T13:30:45Z</time>
      </trkpt>
    </trkseg>
  </trk>
</gpx>